U26853 / G-EZII 7700 Squawk Report (2nd of December, 2019)

Aircraft A319 Reg No. G-EZII Age 14 years old
Model A319 Jet engines 2 First flight 02-05-05
Registered 25-05-05 Rollout 04-05 Delivered 25-05-05
Construction No. 2471 Line No. N/A Series 111
ADSHEX 400C4B Airline name easyJet Owner N/A
Airfield based Luton~Beds~G First tracked 2017-07-13 08:10:00

Flight history for G-EZII

Time Lat Lon Altitude Heading Speed Vertical Rate
2019-12-02 14:36:46 GMT 52.309608 4.753058 0 146 1 0
2019-12-02 14:36:38 GMT 52.309650 4.753036 0 146 2 0
2019-12-02 14:36:27 GMT 52.309765 4.752903 0 149 5 0
2019-12-02 14:35:44 GMT 52.311134 4.754078 0 233 12 0
2019-12-02 14:35:37 GMT 52.311378 4.754510 0 208 11 0
2019-12-02 14:35:28 GMT 52.311867 4.754647 0 177 15 0
2019-12-02 14:35:12 GMT 52.312866 4.754543 0 177 16 0
2019-12-02 14:35:06 GMT 52.313301 4.754505 0 177 15 0
2019-12-02 14:34:55 GMT 52.314034 4.754448 0 177 12 0
2019-12-02 14:34:47 GMT 52.314404 4.754412 0 177 11 0
2019-12-02 14:34:36 GMT 52.314903 4.754451 0 208 12 0
2019-12-02 14:34:22 GMT 52.315186 4.755766 0 267 20 0
2019-12-02 14:34:15 GMT 52.315258 4.757862 0 267 23 0
2019-12-02 14:34:01 GMT 52.315311 4.759356 0 267 23 0
2019-12-02 14:33:51 GMT 52.315369 4.761063 0 267 23 0
2019-12-02 14:33:39 GMT 52.315441 4.763083 0 267 23 0
2019-12-02 14:33:28 GMT 52.315498 4.764810 0 267 23 0
2019-12-02 14:33:17 GMT 52.315578 4.766922 0 267 24 0
2019-12-02 14:33:08 GMT 52.315613 4.768400 0 267 23 0
2019-12-02 14:32:47 GMT 52.315742 4.771774 0 267 22 0
2019-12-02 14:32:28 GMT 52.315624 4.774697 0 300 20 0
2019-12-02 14:32:08 GMT 52.314285 4.776516 0 351 19 0
2019-12-02 14:31:26 GMT 52.311241 4.776707 0 331 13 0
2019-12-02 14:30:32 GMT 52.302906 4.778484 0 2 82 0
2019-12-02 14:30:22 GMT 52.298973 4.778111 0 2 105 0
2019-12-02 14:30:11 GMT 52.293293 4.777562 -400 3 124 -640
2019-12-02 14:30:07 GMT 52.290871 4.777326 -350 3 124 -576
2019-12-02 14:30:04 GMT 52.289242 4.777169 -300 3 124 -576
2019-12-02 14:30:01 GMT 52.283890 4.776620 -200 2 123 -640
2019-12-02 14:29:58 GMT 52.285378 4.776777 -225 2 123 -576
2019-12-02 14:29:52 GMT 52.282307 4.776542 -175 3 120 -640
2019-12-02 14:29:45 GMT 52.277527 4.776077 -100 3 122 -576
2019-12-02 14:29:36 GMT 52.273136 4.775600 75 2 120 -704
2019-12-02 14:29:29 GMT 52.269226 4.775286 350 3 119 -640
2019-12-02 14:29:26 GMT 52.267780 4.775129 125 2 120 -704
2019-12-02 14:29:23 GMT 52.266129 4.775009 150 3 119 -640
2019-12-02 14:29:19 GMT 52.263519 4.774857 200 2 120 -640
2019-12-02 14:29:16 GMT 52.259766 4.774475 275 3 119 -704
2019-12-02 14:29:12 GMT 52.259766 4.774475 275 3 119 -640
2019-12-02 14:29:07 GMT 52.256973 4.774246 325 3 119 -640
2019-12-02 14:29:03 GMT 52.255119 4.774030 350 3 119 -640
2019-12-02 14:28:57 GMT 52.251350 4.773717 475 3 118 -576
2019-12-02 14:28:53 GMT 52.248779 4.773407 475 3 118 -640
2019-12-02 14:28:47 GMT 52.243423 4.772949 550 3 119 -768
2019-12-02 14:28:43 GMT 52.241501 4.772797 750 3 135 -768
2019-12-02 14:28:39 GMT 52.241501 4.772797 625 3 120 -576
2019-12-02 14:28:36 GMT 52.239853 4.772618 1,050 3 134 -704
2019-12-02 14:28:33 GMT 52.238548 4.772539 675 2 120 -768
2019-12-02 14:28:26 GMT 52.234264 4.772147 800 3 123 -640
2019-12-02 14:28:23 GMT 52.232960 4.771990 800 3 123 -640
2019-12-02 14:28:18 GMT 52.230263 4.771755 875 3 129 -576
2019-12-02 14:28:15 GMT 52.225372 4.771362 925 3 133 -768
2019-12-02 14:28:12 GMT 52.224209 4.771205 1,025 3 134 -704
2019-12-02 14:28:08 GMT 52.224209 4.771205 1,050 3 137 -896
2019-12-02 14:28:05 GMT 52.221462 4.770970 1,025 3 132 -640
2019-12-02 14:28:01 GMT 52.219894 4.770813 1,050 3 133 -704
2019-12-02 14:27:58 GMT 52.218063 4.770656 1,150 3 135 -768
2019-12-02 14:27:55 GMT 52.216232 4.770432 1,175 3 137 -896
2019-12-02 14:27:52 GMT 52.213779 4.770185 1,150 3 137 -896
2019-12-02 14:27:49 GMT 52.208755 4.769793 1,350 3 139 -832
2019-12-02 14:27:44 GMT 52.208755 4.769793 1,300 3 138 -768
2019-12-02 14:27:41 GMT 52.207172 4.769636 1,300 3 138 -768
2019-12-02 14:27:38 GMT 52.204971 4.769440 1,350 3 138 -768
2019-12-02 14:27:35 GMT 52.203075 4.769244 1,400 3 139 -832
2019-12-02 14:27:31 GMT 52.200897 4.768982 1,425 3 139 -704
2019-12-02 14:27:28 GMT 52.198696 4.768773 1,475 3 139 -704
2019-12-02 14:27:25 GMT 52.196884 4.768616 1,525 2 140 0
2019-12-02 14:27:22 GMT 52.194836 4.768459 1,550 2 140 -384
2019-12-02 14:27:17 GMT 52.191811 4.768145 1,600 2 140 -512
2019-12-02 14:27:14 GMT 52.188950 4.767914 1,625 2 139 -256
2019-12-02 14:27:11 GMT 52.187946 4.767831 1,650 2 139 -128
2019-12-02 14:27:07 GMT 52.183182 4.767456 1,650 3 139 -64
2019-12-02 14:27:01 GMT 52.181801 4.767282 1,650 3 139 0
2019-12-02 14:26:58 GMT 52.179192 4.767046 1,650 3 139 0
2019-12-02 14:26:55 GMT 52.177277 4.766922 1,650 3 139 0
2019-12-02 14:26:51 GMT 52.174446 4.766654 1,650 3 139 0
2019-12-02 14:26:48 GMT 52.172768 4.766418 1,650 3 139 0
2019-12-02 14:26:45 GMT 52.171143 4.766312 1,650 3 138 0
2019-12-02 14:26:41 GMT 52.168671 4.766026 1,650 3 138 0
2019-12-02 14:26:38 GMT 52.166344 4.765791 1,650 3 139 0
2019-12-02 14:26:34 GMT 52.163177 4.765549 1,650 2 139 -64
2019-12-02 14:26:30 GMT 52.161270 4.765320 1,650 2 139 -64
2019-12-02 14:26:27 GMT 52.159744 4.765244 1,650 2 139 -64
2019-12-02 14:26:24 GMT 52.155487 4.764862 1,650 2 140 0
2019-12-02 14:26:21 GMT 52.155487 4.764862 1,650 2 142 -64
2019-12-02 14:26:17 GMT 52.153152 4.764709 1,650 2 142 -128
2019-12-02 14:26:14 GMT 52.150497 4.764481 1,650 2 142 -128
2019-12-02 14:26:11 GMT 52.148941 4.764328 1,650 3 146 128
2019-12-02 14:26:08 GMT 52.146702 4.764143 1,650 3 146 192
2019-12-02 14:26:04 GMT 52.143021 4.763829 1,650 3 146 128
2019-12-02 14:26:01 GMT 52.141983 4.763794 1,650 3 149 128
2019-12-02 14:25:57 GMT 52.139950 4.763515 1,625 4 150 64
2019-12-02 14:25:53 GMT 52.136948 4.763184 1,625 4 158 0
2019-12-02 14:25:50 GMT 52.134933 4.762955 1,625 5 161 0
2019-12-02 14:25:46 GMT 52.131912 4.762497 1,625 6 164 128
2019-12-02 14:25:43 GMT 52.129486 4.762039 1,650 7 167 -192
2019-12-02 14:25:40 GMT 52.126869 4.761553 1,650 7 168 64
2019-12-02 14:25:33 GMT 52.121655 4.760298 1,650 9 167 -64
2019-12-02 14:25:30 GMT 52.119370 4.759674 1,650 10 166 0
2019-12-02 14:25:25 GMT 52.115112 4.758453 1,675 12 167 -64
2019-12-02 14:25:22 GMT 52.112904 4.757551 1,675 17 168 -64
2019-12-02 14:25:19 GMT 52.111462 4.756845 1,700 24 170 -192
2019-12-02 14:25:13 GMT 52.107010 4.753723 1,675 33 174 -320
2019-12-02 14:25:09 GMT 52.104431 4.750959 1,700 36 176 -320
2019-12-02 14:25:02 GMT 52.097031 4.741898 1,750 38 180 -320
2019-12-02 14:24:59 GMT 52.097031 4.741898 1,750 38 179 -384
2019-12-02 14:24:56 GMT 52.095726 4.740287 1,800 48 182 -128
2019-12-02 14:24:52 GMT 52.093277 4.736938 1,825 53 184 -192
2019-12-02 14:24:49 GMT 52.091209 4.733695 1,800 48 182 -128
2019-12-02 14:24:45 GMT 52.088882 4.729143 1,825 63 188 -192
2019-12-02 14:24:38 GMT 52.086510 4.721375 1,850 73 193 -192
2019-12-02 14:24:32 GMT 52.085449 4.712448 1,875 87 201 -384
2019-12-02 14:24:29 GMT 52.085770 4.699631 2,950 95 207 -384
2019-12-02 14:24:25 GMT 52.085770 4.699631 1,925 95 209 -384
2019-12-02 14:24:22 GMT 52.085995 4.695635 1,950 95 210 -384
2019-12-02 14:24:19 GMT 52.086369 4.688965 1,950 95 212 -384
2019-12-02 14:24:15 GMT 52.086548 4.685822 1,975 123 224 -320
2019-12-02 14:24:12 GMT 52.087280 4.674225 2,000 95 214 -192
2019-12-02 14:24:08 GMT 52.087280 4.674225 2,000 98 215 -192
2019-12-02 14:24:05 GMT 52.087669 4.669425 2,025 127 224 -320
2019-12-02 14:24:02 GMT 52.088654 4.663162 2,075 132 225 -448
2019-12-02 14:23:58 GMT 52.089626 4.658752 2,050 112 221 -384
2019-12-02 14:23:55 GMT 52.091446 4.652786 2,100 123 222 -320
2019-12-02 14:23:52 GMT 52.092747 4.649336 2,100 123 224 -320
2019-12-02 14:23:49 GMT 52.094841 4.644235 2,125 123 224 -320
2019-12-02 14:23:46 GMT 52.096527 4.640045 2,125 123 223 -320
2019-12-02 14:23:43 GMT 52.097900 4.636765 2,150 123 223 -256
2019-12-02 14:23:39 GMT 52.101452 4.628148 2,200 146 229 -384
2019-12-02 14:23:36 GMT 52.103546 4.623047 2,200 124 223 -320
2019-12-02 14:23:33 GMT 52.106339 4.616298 2,225 123 222 -320
2019-12-02 14:23:28 GMT 52.106339 4.616298 2,225 123 222 -320
2019-12-02 14:23:25 GMT 52.108200 4.611825 2,225 123 222 -384
2019-12-02 14:23:22 GMT 52.111599 4.603507 2,300 123 223 -320
2019-12-02 14:23:19 GMT 52.111599 4.603507 2,275 123 223 -384
2019-12-02 14:23:16 GMT 52.113461 4.599034 2,300 123 222 -320
2019-12-02 14:23:13 GMT 52.114929 4.595490 2,325 124 223 -384
2019-12-02 14:23:09 GMT 52.117264 4.589844 2,350 129 225 -384
2019-12-02 14:23:05 GMT 52.119827 4.583969 2,350 128 225 -384
2019-12-02 14:23:02 GMT 52.122028 4.579494 2,400 145 228 -384
2019-12-02 14:22:59 GMT 52.125099 4.574393 2,400 139 227 -448
2019-12-02 14:22:56 GMT 52.126007 4.573059 2,425 142 227 -448
2019-12-02 14:22:52 GMT 52.132034 4.566153 2,475 146 228 -384
2019-12-02 14:22:45 GMT 52.135994 4.561994 2,500 146 229 -384
2019-12-02 14:22:42 GMT 52.137714 4.560189 2,525 146 229 -384
2019-12-02 14:22:39 GMT 52.140381 4.557343 2,525 146 230 -320
2019-12-02 14:22:36 GMT 52.143394 4.554147 4,200 146 230 -512
2019-12-02 14:22:33 GMT 52.146057 4.551315 2,575 146 230 -384
2019-12-02 14:22:30 GMT 52.149494 4.547712 2,600 146 230 -384
2019-12-02 14:22:24 GMT 52.154800 4.542062 2,650 146 231 -512
2019-12-02 14:22:21 GMT 52.157127 4.539629 2,650 146 231 -512
2019-12-02 14:22:18 GMT 52.159966 4.536569 2,700 146 231 -512
2019-12-02 14:22:14 GMT 52.165928 4.530291 2,725 146 231 -512
2019-12-02 14:22:11 GMT 52.165928 4.530291 2,750 146 231 -512
2019-12-02 14:22:08 GMT 52.169140 4.526838 2,825 146 230 -512
2019-12-02 14:22:05 GMT 52.173386 4.522400 2,825 146 230 -448
2019-12-02 14:21:59 GMT 52.176956 4.518509 2,850 146 231 -512
2019-12-02 14:21:55 GMT 52.183228 4.511871 2,900 146 231 -640
2019-12-02 14:21:52 GMT 52.183228 4.511871 2,900 146 231 -640
2019-12-02 14:21:48 GMT 52.188950 4.505768 2,950 146 231 -640
2019-12-02 14:21:45 GMT 52.188950 4.505768 2,975 146 231 -640
2019-12-02 14:21:42 GMT 52.191437 4.503139 3,075 146 231 -640
2019-12-02 14:21:39 GMT 52.194351 4.500046 3,050 146 231 -704
2019-12-02 14:21:36 GMT 52.197556 4.496613 3,100 146 231 -640
2019-12-02 14:21:33 GMT 52.200851 4.493179 3,150 146 232 -576
2019-12-02 14:21:29 GMT 52.204056 4.489746 3,175 146 232 -576
2019-12-02 14:21:25 GMT 52.210373 4.483109 3,250 147 233 -768
2019-12-02 14:21:18 GMT 52.214310 4.478989 3,325 147 233 -768
2019-12-02 14:21:15 GMT 52.216461 4.476700 3,350 147 233 -768
2019-12-02 14:21:12 GMT 52.218391 4.474731 3,450 147 234 -768
2019-12-02 14:21:09 GMT 52.221451 4.471512 3,450 147 234 -768
2019-12-02 14:21:06 GMT 52.224930 4.467850 3,475 147 234 -704
2019-12-02 14:21:03 GMT 52.227142 4.465628 3,525 147 235 -704
2019-12-02 14:21:00 GMT 52.230240 4.462357 3,550 147 235 -704
2019-12-02 14:20:57 GMT 52.232029 4.460606 3,575 147 236 -896
2019-12-02 14:20:54 GMT 52.235195 4.457310 3,725 147 236 -1152
2019-12-02 14:20:51 GMT 52.239670 4.452667 3,675 147 236 -1088
2019-12-02 14:20:46 GMT 52.243881 4.448318 3,800 147 236 -1344
2019-12-02 14:20:42 GMT 52.246414 4.445696 3,925 147 236 -1216
2019-12-02 14:20:39 GMT 52.249786 4.442215 3,950 147 236 -768
2019-12-02 14:20:36 GMT 52.252327 4.439575 3,975 147 235 -1152
2019-12-02 14:20:33 GMT 52.254684 4.437103 4,075 147 236 -832
2019-12-02 14:20:30 GMT 52.258564 4.433062 4,100 147 236 -640
2019-12-02 14:20:27 GMT 52.261047 4.430389 4,125 147 236 -640
2019-12-02 14:20:24 GMT 52.265305 4.425964 4,200 147 254 -1024
2019-12-02 14:20:17 GMT 52.269470 4.421616 4,250 147 242 -576
2019-12-02 14:20:14 GMT 52.273090 4.417759 4,275 147 244 -640
2019-12-02 14:20:11 GMT 52.276115 4.414621 4,325 147 247 -512
2019-12-02 14:20:08 GMT 52.277931 4.412659 4,350 147 256 -896
2019-12-02 14:20:05 GMT 52.280777 4.409637 4,375 147 247 -704
2019-12-02 14:20:01 GMT 52.284912 4.405282 4,425 146 249 -704
2019-12-02 14:19:57 GMT 52.288879 4.401093 4,475 147 253 -960
2019-12-02 14:19:53 GMT 52.292595 4.397199 4,525 147 253 -832
2019-12-02 14:19:50 GMT 52.295151 4.394455 4,550 147 253 -960
2019-12-02 14:19:47 GMT 52.298676 4.390717 4,650 146 255 -896
2019-12-02 14:19:44 GMT 52.302044 4.387155 4,675 146 255 -896
2019-12-02 14:19:41 GMT 52.304558 4.384487 4,725 147 256 -896
2019-12-02 14:19:38 GMT 52.307785 4.381104 4,775 146 255 -960
2019-12-02 14:19:35 GMT 52.312637 4.375992 4,875 146 255 -960
2019-12-02 14:19:29 GMT 52.316620 4.371719 4,925 146 255 -896
2019-12-02 14:19:26 GMT 52.323349 4.364395 5,025 146 256 -896
2019-12-02 14:19:23 GMT 52.323349 4.364395 5,025 145 255 -896
2019-12-02 14:19:20 GMT 52.328159 4.359061 5,350 145 255 -896
2019-12-02 14:19:17 GMT 52.328159 4.359061 5,225 145 256 -832
2019-12-02 14:19:14 GMT 52.330441 4.356550 5,175 145 256 -832
2019-12-02 14:19:11 GMT 52.334446 4.352077 5,200 145 256 -768
2019-12-02 14:19:07 GMT 52.338593 4.347534 5,300 145 256 -704
2019-12-02 14:19:04 GMT 52.340683 4.345171 5,325 145 257 -576
2019-12-02 14:19:01 GMT 52.343582 4.341965 5,350 145 256 -576
2019-12-02 14:18:58 GMT 52.347527 4.337638 5,425 146 257 -640
2019-12-02 14:18:55 GMT 52.349075 4.335938 5,400 146 262 -576
2019-12-02 14:18:52 GMT 52.352039 4.332694 5,425 146 259 -576
2019-12-02 14:18:49 GMT 52.355026 4.329453 5,450 146 259 -640
2019-12-02 14:18:46 GMT 52.358837 4.325317 5,500 146 262 -576
2019-12-02 14:18:43 GMT 52.361893 4.322128 5,550 147 264 -640
2019-12-02 14:18:39 GMT 52.366657 4.316999 5,575 146 265 -576
2019-12-02 14:18:36 GMT 52.369308 4.314194 5,600 147 269 -576
2019-12-02 14:18:32 GMT 52.373779 4.309466 5,650 147 270 -512
2019-12-02 14:18:29 GMT 52.380253 4.302638 5,675 147 274 -576
2019-12-02 14:18:26 GMT 52.380253 4.302638 5,700 147 274 -576
2019-12-02 14:18:23 GMT 52.382812 4.300003 5,725 147 275 -576
2019-12-02 14:18:20 GMT 52.387802 4.294739 5,750 147 278 -576
2019-12-02 14:18:17 GMT 52.389267 4.293213 6,100 147 288 -768
2019-12-02 14:18:12 GMT 52.394165 4.288101 5,825 147 282 -640
2019-12-02 14:18:08 GMT 52.400551 4.281372 5,900 147 286 -576
2019-12-02 14:18:05 GMT 52.402176 4.279709 5,950 147 288 -768
2019-12-02 14:18:02 GMT 52.405529 4.276193 5,975 147 287 -768
2019-12-02 14:17:58 GMT 52.410553 4.270935 6,000 147 287 -768
2019-12-02 14:17:55 GMT 52.413445 4.267953 6,050 147 288 -768
2019-12-02 14:17:51 GMT 52.418472 4.262774 6,100 147 288 -768
2019-12-02 14:17:47 GMT 52.423035 4.258065 6,125 147 289 -896
2019-12-02 14:17:44 GMT 52.426151 4.254848 6,250 147 288 -832
2019-12-02 14:17:41 GMT 52.429272 4.251631 6,200 147 288 -896
2019-12-02 14:17:38 GMT 52.433834 4.246922 6,250 147 288 -960
2019-12-02 14:17:35 GMT 52.435776 4.244919 6,350 147 289 -896
2019-12-02 14:17:32 GMT 52.438889 4.241714 6,400 147 290 -960
2019-12-02 14:17:29 GMT 52.442028 4.238525 6,400 147 290 -960
2019-12-02 14:17:26 GMT 52.446121 4.234161 6,425 147 290 -960
2019-12-02 14:17:22 GMT 52.451797 4.227982 6,525 142 292 -896
2019-12-02 14:17:18 GMT 52.454224 4.225159 6,550 142 292 -896
2019-12-02 14:17:15 GMT 52.457611 4.220810 6,575 141 292 -896
2019-12-02 14:17:12 GMT 52.461067 4.215611 6,950 112 282 -1024
2019-12-02 14:17:09 GMT 52.464603 4.208941 6,750 125 289 -1024
2019-12-02 14:17:05 GMT 52.466419 4.204703 6,800 121 287 -1152
2019-12-02 14:17:01 GMT 52.469398 4.196307 6,875 114 283 -1024
2019-12-02 14:16:58 GMT 52.471497 4.188773 6,975 112 282 -1024
2019-12-02 14:16:54 GMT 52.473587 4.180374 7,025 112 281 -960
2019-12-02 14:16:50 GMT 52.474846 4.175354 7,150 112 281 -960
2019-12-02 14:16:46 GMT 52.477638 4.163975 7,425 111 279 -960
2019-12-02 14:16:42 GMT 52.479401 4.156799 7,975 111 283 -896
2019-12-02 14:16:39 GMT 52.480225 4.153442 7,300 111 279 -896
2019-12-02 14:16:36 GMT 52.482422 4.144211 7,300 111 278 -960
2019-12-02 14:16:33 GMT 52.483086 4.141296 7,350 111 278 -960
2019-12-02 14:16:29 GMT 52.485397 4.131622 7,425 111 279 -960
2019-12-02 14:16:26 GMT 52.486530 4.126936 7,500 111 279 -1024
2019-12-02 14:16:23 GMT 52.487835 4.121521 7,550 111 279 -1024
2019-12-02 14:16:20 GMT 52.489426 4.114838 7,575 111 280 -1024
2019-12-02 14:16:17 GMT 52.491165 4.107666 7,600 111 280 -960
2019-12-02 14:16:14 GMT 52.492397 4.102609 7,650 111 280 -960
2019-12-02 14:16:11 GMT 52.494213 4.095154 7,800 111 282 -960
2019-12-02 14:16:08 GMT 52.495193 4.091187 7,800 111 282 -960
2019-12-02 14:16:05 GMT 52.496632 4.085266 7,825 111 282 -960
2019-12-02 14:15:58 GMT 52.500542 4.069257 8,000 111 283 -896
2019-12-02 14:15:55 GMT 52.501987 4.063372 8,100 111 286 -960
2019-12-02 14:15:51 GMT 52.503662 4.056466 8,050 111 283 -832
2019-12-02 14:15:47 GMT 52.505337 4.049639 8,100 111 285 -896
2019-12-02 14:15:43 GMT 52.507233 4.041901 8,175 111 287 -1280
2019-12-02 14:15:40 GMT 52.508789 4.035492 8,300 111 288 -1536
2019-12-02 14:15:36 GMT 52.512276 4.021232 8,350 107 292 -1088
2019-12-02 14:15:30 GMT 52.514236 4.013138 8,475 111 288 -1536
2019-12-02 14:15:26 GMT 52.515976 4.006119 8,900 111 288 -1600
2019-12-02 14:15:23 GMT 52.517769 3.998866 8,675 112 289 -1536
2019-12-02 14:15:20 GMT 52.518539 3.995743 8,750 112 289 -1472
2019-12-02 14:15:15 GMT 52.521259 3.984820 8,925 106 294 -1216
2019-12-02 14:15:11 GMT 52.525681 3.966064 9,125 107 292 -1088
2019-12-02 14:15:07 GMT 52.525681 3.966064 9,050 108 291 -1152
2019-12-02 14:15:04 GMT 52.527729 3.955706 9,225 107 292 -1088
2019-12-02 14:15:01 GMT 52.527729 3.955706 9,150 107 292 -1152
2019-12-02 14:14:57 GMT 52.529434 3.946686 9,250 106 294 -1152
2019-12-02 14:14:54 GMT 52.530430 3.941188 9,300 106 294 -1216
2019-12-02 14:14:51 GMT 52.532104 3.932164 9,425 106 296 -1408
2019-12-02 14:14:47 GMT 52.533455 3.924709 9,500 106 296 -1536
2019-12-02 14:14:44 GMT 52.534386 3.919608 9,525 106 297 -1536
2019-12-02 14:14:40 GMT 52.535969 3.910897 9,625 106 297 -1472
2019-12-02 14:14:37 GMT 52.537399 3.903046 9,725 106 298 -1408
2019-12-02 14:14:34 GMT 52.538361 3.897476 9,825 106 298 -1152
2019-12-02 14:14:31 GMT 52.539696 3.890102 9,850 106 310 -768
2019-12-02 14:14:27 GMT 52.540924 3.883057 9,900 105 301 -832
2019-12-02 14:14:24 GMT 52.543465 3.868443 10,075 106 303 -960
2019-12-02 14:14:17 GMT 52.544907 3.860439 10,100 106 307 -1088
2019-12-02 14:14:14 GMT 52.546097 3.853760 10,175 106 310 -768
2019-12-02 14:14:10 GMT 52.547379 3.846588 10,175 106 310 -832
2019-12-02 14:14:06 GMT 52.549095 3.836897 10,275 106 311 -704
2019-12-02 14:14:03 GMT 52.552322 3.818893 10,300 106 317 -768
2019-12-02 14:13:59 GMT 52.552322 3.818893 10,375 106 317 -768
2019-12-02 14:13:56 GMT 52.553844 3.810451 10,400 106 322 -896
2019-12-02 14:13:53 GMT 52.554840 3.805008 10,425 106 322 -896
2019-12-02 14:13:50 GMT 52.556126 3.797974 10,475 106 326 -896
2019-12-02 14:13:47 GMT 52.557587 3.789978 10,550 106 327 -896
2019-12-02 14:13:43 GMT 52.560596 3.773176 10,625 106 329 -896
2019-12-02 14:13:39 GMT 52.560596 3.773176 10,625 106 331 -896
2019-12-02 14:13:35 GMT 52.562225 3.763916 10,700 106 334 -896
2019-12-02 14:13:32 GMT 52.563538 3.756638 10,725 105 339 -896
2019-12-02 14:13:29 GMT 52.566322 3.740374 10,800 105 343 -1088
2019-12-02 14:13:26 GMT 52.566322 3.740374 11,025 106 352 -2112
2019-12-02 14:13:22 GMT 52.568089 3.730172 10,900 106 347 -1856
2019-12-02 14:13:18 GMT 52.569763 3.720551 11,025 106 347 -1600
2019-12-02 14:13:15 GMT 52.571533 3.710475 11,025 106 347 -1856
2019-12-02 14:13:10 GMT 52.575165 3.689680 11,225 106 359 -1984
2019-12-02 14:13:06 GMT 52.575165 3.689680 12,225 106 364 -2048
2019-12-02 14:13:02 GMT 52.576492 3.682098 11,400 106 350 -2112
2019-12-02 14:12:59 GMT 52.580101 3.661822 11,550 106 353 -1984
2019-12-02 14:12:55 GMT 52.580101 3.661822 12,700 106 353 -1984
2019-12-02 14:12:52 GMT 52.581436 3.654251 11,850 106 352 -2176
2019-12-02 14:12:47 GMT 52.583405 3.643265 12,050 106 354 -1728
2019-12-02 14:12:43 GMT 52.585735 3.630118 12,175 106 356 -1856
2019-12-02 14:12:37 GMT 52.588062 3.616856 12,300 106 356 -1920
2019-12-02 14:12:34 GMT 52.590088 3.605423 12,400 106 357 -2048
2019-12-02 14:12:31 GMT 52.592110 3.594099 12,575 106 358 -1984
2019-12-02 14:12:24 GMT 52.594299 3.581848 13,250 105 365 -3008
2019-12-02 14:12:20 GMT 52.595810 3.573456 12,850 106 361 -1856
2019-12-02 14:12:17 GMT 52.597733 3.562851 12,975 106 363 -2048
2019-12-02 14:12:13 GMT 52.601578 3.541946 13,325 106 364 -2048
2019-12-02 14:12:09 GMT 52.601578 3.541946 13,275 106 364 -2048
2019-12-02 14:12:05 GMT 52.603546 3.531265 13,375 106 365 -2048
2019-12-02 14:12:01 GMT 52.605427 3.521040 13,500 106 366 -2368
2019-12-02 14:11:57 GMT 52.607380 3.510289 13,650 106 367 -2240
2019-12-02 14:11:54 GMT 52.609009 3.501107 13,825 106 366 -2432
2019-12-02 14:11:51 GMT 52.610405 3.493182 13,900 105 367 -2496
2019-12-02 14:11:48 GMT 52.611290 3.488081 14,375 105 365 -2752
2019-12-02 14:11:42 GMT 52.614597 3.468619 14,325 105 363 -3136
2019-12-02 14:11:39 GMT 52.616135 3.459549 14,500 105 362 -3008
2019-12-02 14:11:34 GMT 52.617828 3.449326 14,800 105 361 -2752
2019-12-02 14:11:31 GMT 52.619110 3.441389 14,800 105 361 -2688
2019-12-02 14:11:28 GMT 52.620346 3.434067 15,075 105 362 -2112
2019-12-02 14:11:24 GMT 52.623440 3.415963 15,200 105 362 -2112
2019-12-02 14:11:21 GMT 52.624886 3.407488 15,275 105 362 -2112
2019-12-02 14:11:18 GMT 52.624886 3.407488 15,400 105 363 -2048
2019-12-02 14:11:15 GMT 52.626434 3.398514 15,500 106 366 -1856
2019-12-02 14:11:12 GMT 52.627625 3.391647 15,600 105 364 -1856
2019-12-02 14:11:09 GMT 52.629028 3.383711 15,625 106 366 -1792
2019-12-02 14:11:05 GMT 52.630703 3.374058 15,725 106 367 -1856
2019-12-02 14:11:02 GMT 52.632202 3.365326 16,000 106 369 -1920
2019-12-02 14:10:59 GMT 52.633823 3.356166 16,000 105 380 -2688
2019-12-02 14:10:53 GMT 52.636688 3.340073 16,150 106 371 -2176
2019-12-02 14:10:50 GMT 52.638618 3.329171 16,250 106 374 -1664
2019-12-02 14:10:47 GMT 52.641083 3.315277 16,675 106 376 -1600
2019-12-02 14:10:39 GMT 52.643372 3.302383 16,525 105 380 -2496
2019-12-02 14:10:36 GMT 52.645157 3.292465 16,850 105 379 -2304
2019-12-02 14:10:33 GMT 52.646255 3.285904 16,700 106 378 -1920
2019-12-02 14:10:30 GMT 52.647926 3.276515 16,875 105 380 -2432
2019-12-02 14:10:26 GMT 52.650055 3.264236 16,950 105 380 -2688
2019-12-02 14:10:23 GMT 52.651062 3.258057 18,125 105 383 -1984
2019-12-02 14:10:20 GMT 52.652489 3.249834 17,300 105 380 -2496
2019-12-02 14:10:17 GMT 52.653900 3.241501 17,500 105 380 -2560
2019-12-02 14:10:13 GMT 52.655746 3.230844 17,500 105 380 -2496
2019-12-02 14:10:09 GMT 52.658260 3.216091 17,725 105 400 -2560
2019-12-02 14:10:05 GMT 52.659714 3.207703 17,775 105 380 -2560
2019-12-02 14:10:02 GMT 52.661270 3.198776 18,100 105 383 -1984
2019-12-02 14:09:58 GMT 52.664223 3.181484 18,250 105 399 -2432
2019-12-02 14:09:52 GMT 52.665894 3.171997 18,325 105 384 -1920
2019-12-02 14:09:48 GMT 52.667725 3.161240 18,550 105 400 -2560
2019-12-02 14:09:45 GMT 52.669155 3.152762 18,550 105 386 -1920
2019-12-02 14:09:42 GMT 52.670879 3.142561 18,650 105 389 -1856
2019-12-02 14:09:38 GMT 52.673264 3.128815 18,775 105 391 -1536
2019-12-02 14:09:35 GMT 52.675579 3.115173 19,375 105 397 -1920
2019-12-02 14:09:32 GMT 52.675579 3.115173 18,975 105 397 -1920
2019-12-02 14:09:29 GMT 52.677063 3.106537 19,175 105 398 -3008
2019-12-02 14:09:25 GMT 52.679535 3.092270 19,125 105 398 -1984
2019-12-02 14:09:21 GMT 52.681549 3.080521 19,275 105 399 -2240
2019-12-02 14:09:18 GMT 52.682423 3.075544 19,425 105 400 -2624
2019-12-02 14:09:15 GMT 52.683929 3.066864 19,575 105 400 -2624
2019-12-02 14:09:12 GMT 52.685989 3.054962 20,050 105 400 -2752
2019-12-02 14:09:08 GMT 52.687683 3.045018 19,725 105 400 -2816
2019-12-02 14:09:05 GMT 52.689926 3.031921 20,000 105 399 -2944
2019-12-02 14:09:02 GMT 52.690895 3.026263 20,075 105 400 -2048
2019-12-02 14:08:59 GMT 52.692757 3.015276 20,525 105 398 -3008
2019-12-02 14:08:55 GMT 52.694504 3.005066 20,450 105 397 -3008
2019-12-02 14:08:52 GMT 52.695557 2.998886 21,050 105 400 -2048
2019-12-02 14:08:47 GMT 52.697845 2.985229 20,850 105 397 -2880
2019-12-02 14:08:44 GMT 52.699696 2.973999 20,975 105 397 -2688
2019-12-02 14:08:41 GMT 52.702766 2.955401 22,400 105 414 -2240
2019-12-02 14:08:37 GMT 52.704952 2.942296 21,550 105 400 -2048
2019-12-02 14:08:34 GMT 52.704952 2.942296 21,400 105 398 -2240
2019-12-02 14:08:29 GMT 52.707188 2.928484 21,675 105 401 -1984
2019-12-02 14:08:26 GMT 52.709797 2.912711 22,075 105 403 -1856
2019-12-02 14:08:23 GMT 52.711517 2.902039 21,875 105 407 -1792
2019-12-02 14:08:20 GMT 52.711517 2.902039 21,850 105 406 -1792
2019-12-02 14:08:16 GMT 52.713242 2.891759 22,350 105 412 -2176
2019-12-02 14:08:12 GMT 52.715240 2.879674 22,075 105 409 -1920
2019-12-02 14:08:09 GMT 52.716408 2.872532 22,150 105 412 -2176
2019-12-02 14:08:06 GMT 52.718582 2.859802 22,300 105 413 -2304
2019-12-02 14:08:01 GMT 52.720871 2.846222 22,700 105 413 -2304
2019-12-02 14:07:57 GMT 52.723156 2.832668 22,600 105 414 -2240
2019-12-02 14:07:54 GMT 52.724167 2.826843 22,825 105 414 -2240
2019-12-02 14:07:49 GMT 52.727417 2.807312 23,275 105 416 -2240
2019-12-02 14:07:46 GMT 52.728882 2.798386 23,125 105 418 -2368
2019-12-02 14:07:43 GMT 52.730026 2.791672 23,600 105 426 -1024
2019-12-02 14:07:39 GMT 52.732407 2.777481 24,100 105 418 -2368
2019-12-02 14:07:35 GMT 52.733814 2.768790 23,950 105 419 -1024
2019-12-02 14:07:32 GMT 52.736050 2.755607 23,575 105 418 -1856
2019-12-02 14:07:29 GMT 52.737122 2.749093 23,650 105 418 -1728
2019-12-02 14:07:25 GMT 52.739090 2.737274 24,875 103 466 -1344
2019-12-02 14:07:21 GMT 52.741241 2.724152 23,825 105 419 -1024
2019-12-02 14:07:18 GMT 52.742989 2.713623 23,875 105 419 -1024
2019-12-02 14:07:14 GMT 52.745041 2.701340 24,000 105 420 -1024
2019-12-02 14:07:11 GMT 52.746368 2.693329 24,025 105 421 -1024
2019-12-02 14:07:08 GMT 52.747688 2.685372 24,075 105 421 -1024
2019-12-02 14:07:05 GMT 52.749893 2.672119 24,125 105 426 -1024
2019-12-02 14:07:02 GMT 52.752625 2.655552 24,200 105 428 -1024
2019-12-02 14:06:59 GMT 52.752625 2.655552 24,225 105 425 -1024
2019-12-02 14:06:52 GMT 52.757607 2.625575 24,550 105 427 -1024
2019-12-02 14:06:49 GMT 52.757607 2.625575 24,450 105 426 -1024
2019-12-02 14:06:46 GMT 52.759140 2.616196 24,425 105 427 -1024
2019-12-02 14:06:42 GMT 52.761520 2.601624 24,550 105 427 -1024
2019-12-02 14:06:38 GMT 52.763191 2.591439 27,250 105 428 -1024
2019-12-02 14:06:35 GMT 52.765099 2.579982 24,625 105 428 -1024
2019-12-02 14:06:32 GMT 52.766312 2.572527 24,750 105 429 -1088
2019-12-02 14:06:29 GMT 52.767941 2.562483 24,800 105 435 -1344
2019-12-02 14:06:26 GMT 52.769615 2.552359 24,800 105 430 -1088
2019-12-02 14:06:23 GMT 52.773479 2.528974 24,975 105 430 -1088
2019-12-02 14:06:20 GMT 52.773479 2.528974 24,900 105 430 -1088
2019-12-02 14:06:17 GMT 52.774521 2.522812 24,975 105 432 -1088
2019-12-02 14:06:14 GMT 52.776318 2.511867 25,025 105 433 -1024
2019-12-02 14:06:10 GMT 52.778229 2.500488 25,075 105 433 -1024
2019-12-02 14:06:07 GMT 52.780926 2.484166 25,150 105 438 -1536
2019-12-02 14:06:04 GMT 52.780926 2.484166 25,200 105 436 -1472
2019-12-02 14:06:01 GMT 52.784092 2.465018 25,625 105 436 -1472
2019-12-02 14:05:58 GMT 52.784092 2.465018 25,300 105 436 -1536
2019-12-02 14:05:54 GMT 52.786652 2.449323 29,675 105 438 -1536
2019-12-02 14:05:50 GMT 52.788940 2.435608 25,500 105 439 -1728
2019-12-02 14:05:47 GMT 52.790497 2.426147 25,550 105 440 -1984
2019-12-02 14:05:44 GMT 52.791870 2.417603 26,775 105 441 -2240
2019-12-02 14:05:41 GMT 52.792923 2.411423 25,800 105 441 -2368
2019-12-02 14:05:38 GMT 52.796661 2.388506 26,100 105 442 -2816
2019-12-02 14:05:35 GMT 52.796661 2.388506 26,050 105 443 -3008
2019-12-02 14:05:32 GMT 52.798153 2.379560 26,750 105 443 -2816
2019-12-02 14:05:27 GMT 52.800659 2.364273 26,350 105 443 -3136
2019-12-02 14:05:24 GMT 52.802628 2.352448 26,550 105 443 -2880
2019-12-02 14:05:20 GMT 52.804482 2.341343 26,825 105 445 -2432
2019-12-02 14:05:17 GMT 52.805878 2.332993 27,225 105 446 -2304
2019-12-02 14:05:14 GMT 52.807556 2.323216 26,975 105 448 -2368
2019-12-02 14:05:11 GMT 52.809219 2.313309 27,200 105 450 -2368
2019-12-02 14:05:07 GMT 52.811600 2.299271 27,625 105 454 -2688
2019-12-02 14:05:04 GMT 52.813385 2.288666 27,575 105 453 -2560
2019-12-02 14:05:01 GMT 52.817139 2.266083 27,550 105 453 -2560
2019-12-02 14:04:57 GMT 52.817139 2.266083 27,675 105 454 -2688
2019-12-02 14:04:54 GMT 52.819008 2.254787 27,850 105 455 -2624
2019-12-02 14:04:51 GMT 52.820480 2.246094 28,075 105 458 -2048
2019-12-02 14:04:48 GMT 52.823959 2.225494 28,100 105 458 -2048
2019-12-02 14:04:45 GMT 52.825928 2.213898 28,300 105 462 -1728
2019-12-02 14:04:42 GMT 52.825928 2.213898 28,375 105 460 -1792
2019-12-02 14:04:38 GMT 52.828087 2.201111 28,425 105 460 -1728
2019-12-02 14:04:35 GMT 52.829948 2.190281 28,500 105 462 -1728
2019-12-02 14:04:32 GMT 52.833572 2.169266 28,600 105 462 -1728
2019-12-02 14:04:29 GMT 52.833572 2.169266 28,700 105 465 -1792
2019-12-02 14:04:26 GMT 52.834808 2.162018 28,825 105 469 -1792
2019-12-02 14:04:23 GMT 52.836685 2.151108 28,900 105 466 -1792
2019-12-02 14:04:20 GMT 52.838791 2.138672 28,950 105 466 -1792
2019-12-02 14:04:17 GMT 52.840561 2.128444 29,100 103 465 -1344
2019-12-02 14:04:14 GMT 52.842655 2.116045 29,150 105 468 -1792
2019-12-02 14:04:11 GMT 52.844330 2.106001 29,250 104 467 -1728
2019-12-02 14:04:08 GMT 52.845520 2.099152 29,325 105 468 -1792
2019-12-02 14:04:05 GMT 52.849228 2.076492 29,575 103 466 -1408
2019-12-02 14:04:02 GMT 52.849228 2.076492 29,575 104 467 -1600
2019-12-02 14:03:59 GMT 52.850803 2.066685 29,975 101 464 -1024
2019-12-02 14:03:56 GMT 52.854851 2.040240 29,725 103 466 -1344
2019-12-02 14:03:52 GMT 52.854851 2.040240 29,775 103 465 -1344
2019-12-02 14:03:49 GMT 52.856323 2.029953 29,825 103 465 -1152
2019-12-02 14:03:46 GMT 52.857513 2.021255 29,950 101 464 -1024
2019-12-02 14:03:43 GMT 52.858566 2.013626 29,950 101 464 -1024
2019-12-02 14:03:39 GMT 52.860855 1.995510 29,975 101 464 -1024
2019-12-02 14:03:36 GMT 52.862160 1.984837 30,050 101 464 -1024
2019-12-02 14:03:33 GMT 52.863052 1.977463 30,325 101 463 -960
2019-12-02 14:03:27 GMT 52.866943 1.945648 30,225 101 464 -1024
2019-12-02 14:03:24 GMT 52.866943 1.945648 30,300 101 462 -960
2019-12-02 14:03:21 GMT 52.868454 1.933060 30,325 101 463 -960
2019-12-02 14:03:18 GMT 52.869232 1.926422 30,525 101 461 -960
2019-12-02 14:03:15 GMT 52.871201 1.910324 30,400 101 461 -960
2019-12-02 14:03:12 GMT 52.871658 1.906509 30,550 101 461 -960
2019-12-02 14:03:09 GMT 52.872913 1.896083 30,500 101 462 -960
2019-12-02 14:03:06 GMT 52.874405 1.883684 30,525 101 461 -960
2019-12-02 14:03:03 GMT 52.875568 1.874032 30,650 101 461 -960
2019-12-02 14:03:00 GMT 52.878082 1.853472 30,725 101 461 -960
2019-12-02 14:02:53 GMT 52.880966 1.829851 30,800 101 463 -64
2019-12-02 14:02:50 GMT 52.880966 1.829851 30,850 101 461 -1024
2019-12-02 14:02:46 GMT 52.882599 1.816589 30,825 101 462 -960
2019-12-02 14:02:43 GMT 52.885208 1.795197 30,925 101 462 -640
2019-12-02 14:02:40 GMT 52.885208 1.795197 30,975 101 462 -512
2019-12-02 14:02:37 GMT 52.886536 1.784134 30,975 101 462 -448
2019-12-02 14:02:33 GMT 52.888046 1.771698 31,000 101 462 -64
2019-12-02 14:02:29 GMT 52.889969 1.756210 31,025 101 462 64
2019-12-02 14:02:26 GMT 52.892185 1.737802 31,000 101 462 64
2019-12-02 14:02:23 GMT 52.892185 1.737802 31,000 101 463 0
2019-12-02 14:02:20 GMT 52.893536 1.726737 31,000 101 463 0
2019-12-02 14:02:17 GMT 52.894958 1.714859 31,000 101 462 0
2019-12-02 14:02:14 GMT 52.896652 1.700897 31,000 101 463 0
2019-12-02 14:02:10 GMT 52.898285 1.687578 31,000 101 463 0
2019-12-02 14:02:07 GMT 52.900177 1.672058 31,000 101 463 -64
2019-12-02 14:02:01 GMT 52.903126 1.647635 31,000 101 463 0
2019-12-02 14:01:58 GMT 52.903126 1.647635 31,000 101 463 0
2019-12-02 14:01:55 GMT 52.904022 1.640167 31,025 101 462 -64
2019-12-02 14:01:52 GMT 52.905533 1.627655 31,000 101 463 -64
2019-12-02 14:01:49 GMT 52.906723 1.617966 31,025 101 462 -64
2019-12-02 14:01:46 GMT 52.907875 1.608398 31,000 100 463 0
2019-12-02 14:01:43 GMT 52.908920 1.599503 31,025 101 462 -64
2019-12-02 14:01:40 GMT 52.910431 1.587067 31,025 101 462 -64
2019-12-02 14:01:37 GMT 52.911575 1.577377 31,025 101 462 -64
2019-12-02 14:01:34 GMT 52.912811 1.567121 31,025 101 462 -64
2019-12-02 14:01:31 GMT 52.915146 1.547089 31,025 101 462 -64
2019-12-02 14:01:25 GMT 52.916840 1.532974 31,025 100 463 0
2019-12-02 14:01:22 GMT 52.918167 1.521912 31,025 100 463 0
2019-12-02 14:01:19 GMT 52.919235 1.513053 31,025 101 462 0
2019-12-02 14:01:16 GMT 52.920090 1.505661 31,025 101 462 0
2019-12-02 14:01:13 GMT 52.922028 1.489432 31,025 101 462 0
2019-12-02 14:01:10 GMT 52.923191 1.479780 31,025 101 462 0
2019-12-02 14:01:07 GMT 52.924805 1.465988 31,025 101 462 0
2019-12-02 14:01:04 GMT 52.925285 1.462045 31,025 101 462 0
2019-12-02 14:01:01 GMT 52.927734 1.441345 31,000 101 462 64
2019-12-02 14:00:55 GMT 52.929016 1.430283 31,000 100 462 64
2019-12-02 14:00:52 GMT 52.931442 1.409607 31,000 100 463 0
2019-12-02 14:00:49 GMT 52.931442 1.409607 31,000 100 462 64
2019-12-02 14:00:46 GMT 52.932587 1.399841 31,000 100 462 0
2019-12-02 14:00:43 GMT 52.933914 1.388779 31,000 100 463 0
2019-12-02 14:00:40 GMT 52.935432 1.375410 31,000 100 463 0
2019-12-02 14:00:37 GMT 52.936226 1.368740 31,000 100 463 0
2019-12-02 14:00:34 GMT 52.939087 1.344299 31,000 100 462 0
2019-12-02 14:00:30 GMT 52.939087 1.344299 31,000 100 463 0
2019-12-02 14:00:27 GMT 52.940369 1.333160 31,000 100 463 0
2019-12-02 14:00:24 GMT 52.941650 1.322098 31,000 101 462 64
2019-12-02 14:00:19 GMT 52.944233 1.300153 31,000 102 465 0
2019-12-02 14:00:16 GMT 52.945038 1.293182 31,000 102 465 0
2019-12-02 14:00:13 GMT 52.946091 1.285019 30,975 102 464 0
2019-12-02 14:00:10 GMT 52.947418 1.274719 31,000 102 465 0
2019-12-02 14:00:07 GMT 52.948746 1.265106 31,000 103 466 0
2019-12-02 14:00:03 GMT 52.952545 1.239166 31,000 105 469 -64
2019-12-02 14:00:00 GMT 52.954056 1.229477 31,000 104 468 -64
2019-12-02 13:59:57 GMT 52.954056 1.229477 31,000 106 470 0
2019-12-02 13:59:54 GMT 52.956150 1.216343 31,000 106 470 -64
2019-12-02 13:59:51 GMT 52.957672 1.207352 31,000 106 471 0
2019-12-02 13:59:48 GMT 52.959736 1.195626 31,000 106 470 0
2019-12-02 13:59:45 GMT 52.961563 1.185303 31,000 106 470 0
2019-12-02 13:59:42 GMT 52.963165 1.176605 31,000 107 472 0
2019-12-02 13:59:38 GMT 52.965412 1.164786 31,000 108 472 0
2019-12-02 13:59:35 GMT 52.968067 1.151603 31,000 108 473 0
2019-12-02 13:59:32 GMT 52.969231 1.145874 31,000 113 480 0
2019-12-02 13:59:29 GMT 52.972443 1.130493 31,000 111 476 -64
2019-12-02 13:59:25 GMT 52.974884 1.119461 31,000 110 475 -64
2019-12-02 13:59:22 GMT 52.977283 1.108677 31,000 111 476 -64
2019-12-02 13:59:19 GMT 52.979843 1.097770 31,000 112 478 0
2019-12-02 13:59:16 GMT 52.981888 1.089096 31,000 113 480 0
2019-12-02 13:59:13 GMT 52.984035 1.080427 31,000 112 479 0
2019-12-02 13:59:10 GMT 52.987480 1.066616 31,000 113 480 0
2019-12-02 13:59:07 GMT 52.990646 1.054452 31,000 113 480 0
2019-12-02 13:59:04 GMT 52.993378 1.044388 31,000 114 481 0
2019-12-02 13:59:00 GMT 52.995720 1.035775 31,000 115 482 0
2019-12-02 13:58:57 GMT 52.999329 1.022949 31,000 115 482 0
2019-12-02 13:58:54 GMT 53.001984 1.013794 31,000 116 484 0
2019-12-02 13:58:51 GMT 53.004684 1.004410 31,000 117 486 -64
2019-12-02 13:58:48 GMT 53.007637 0.994577 31,000 116 484 0
2019-12-02 13:58:45 GMT 53.011597 0.981903 31,000 117 486 -64
2019-12-02 13:58:42 GMT 53.014481 0.972672 31,000 119 489 -64
2019-12-02 13:58:39 GMT 53.017647 0.962952 31,000 119 488 0
2019-12-02 13:58:36 GMT 53.019741 0.956674 31,000 119 488 -64
2019-12-02 13:58:33 GMT 53.023956 0.944138 31,000 119 488 -64
2019-12-02 13:58:30 GMT 53.027328 0.934387 31,000 120 489 -64
2019-12-02 13:58:27 GMT 53.031738 0.922012 31,000 120 490 -64
2019-12-02 13:58:24 GMT 53.036732 0.908255 31,000 122 491 0
2019-12-02 13:58:21 GMT 53.040298 0.898743 31,000 122 492 0
2019-12-02 13:58:18 GMT 53.044971 0.886518 31,025 122 492 0
2019-12-02 13:58:15 GMT 53.044971 0.886518 31,000 123 494 0
2019-12-02 13:58:12 GMT 53.048721 0.876999 31,000 123 494 0
2019-12-02 13:58:09 GMT 53.053352 0.865566 31,000 125 497 0
2019-12-02 13:58:05 GMT 53.058563 0.852931 31,000 124 496 0
2019-12-02 13:58:02 GMT 53.061359 0.846340 31,000 126 498 0
2019-12-02 13:57:59 GMT 53.065384 0.837021 31,000 127 499 0
2019-12-02 13:57:56 GMT 53.069733 0.827179 31,000 126 498 0
2019-12-02 13:57:53 GMT 53.073532 0.818787 31,000 127 499 0
2019-12-02 13:57:50 GMT 53.082001 0.800629 31,000 128 500 -64
2019-12-02 13:57:47 GMT 53.082001 0.800629 31,000 129 502 -64
2019-12-02 13:57:44 GMT 53.085983 0.792313 31,000 129 501 -64
2019-12-02 13:57:41 GMT 53.095108 0.773908 31,000 129 502 -64
2019-12-02 13:57:38 GMT 53.095108 0.773908 31,025 130 502 0
2019-12-02 13:57:35 GMT 53.098938 0.766375 31,000 130 502 0
2019-12-02 13:57:32 GMT 53.104340 0.755781 31,000 130 502 0
2019-12-02 13:57:29 GMT 53.108841 0.746990 31,025 130 502 0
2019-12-02 13:57:26 GMT 53.112984 0.738831 31,000 130 502 0
2019-12-02 13:57:23 GMT 53.119400 0.726275 31,000 130 502 0
2019-12-02 13:57:19 GMT 53.125134 0.714919 31,000 130 502 0
2019-12-02 13:57:16 GMT 53.128021 0.709345 31,000 130 502 0
2019-12-02 13:57:13 GMT 53.133133 0.699280 31,000 130 502 0
2019-12-02 13:57:10 GMT 53.136353 0.692946 31,000 130 502 0
2019-12-02 13:57:07 GMT 53.142105 0.681623 31,000 130 502 0
2019-12-02 13:57:04 GMT 53.147202 0.671620 31,000 130 502 0
2019-12-02 13:57:01 GMT 53.155792 0.654628 31,000 130 502 0
2019-12-02 13:56:57 GMT 53.159958 0.646497 31,000 130 502 0
2019-12-02 13:56:51 GMT 53.166332 0.633895 31,000 130 502 0
2019-12-02 13:56:48 GMT 53.174332 0.618059 31,000 130 502 0
2019-12-02 13:56:45 GMT 53.174332 0.618059 31,000 130 502 0
2019-12-02 13:56:42 GMT 53.180420 0.606131 31,000 130 502 0
2019-12-02 13:56:39 GMT 53.183945 0.599226 31,000 130 503 0
2019-12-02 13:56:35 GMT 53.189987 0.587298 31,000 130 502 64
2019-12-02 13:56:32 GMT 53.194748 0.577802 31,000 130 502 64
2019-12-02 13:56:28 GMT 53.199200 0.569108 31,000 130 502 64
2019-12-02 13:56:25 GMT 53.208740 0.550205 31,000 130 502 64
2019-12-02 13:56:22 GMT 53.213242 0.541312 30,975 130 502 64
2019-12-02 13:56:16 GMT 53.217728 0.532433 30,975 130 503 -64
2019-12-02 13:56:13 GMT 53.222809 0.522400 30,975 130 503 -64
2019-12-02 13:56:10 GMT 53.227318 0.513530 30,975 130 503 -64
2019-12-02 13:56:07 GMT 53.231739 0.504806 30,975 130 503 -64
2019-12-02 13:56:04 GMT 53.235973 0.496485 30,975 130 503 -64
2019-12-02 13:56:01 GMT 53.246201 0.476257 31,000 130 503 -64
2019-12-02 13:55:57 GMT 53.246201 0.476257 31,000 130 503 -64
2019-12-02 13:55:54 GMT 53.251896 0.465061 31,000 130 502 -64
2019-12-02 13:55:51 GMT 53.255154 0.458679 31,000 130 502 -64
2019-12-02 13:55:48 GMT 53.259251 0.450520 31,000 130 502 -64
2019-12-02 13:55:44 GMT 53.266617 0.436000 31,000 130 502 -64
2019-12-02 13:55:41 GMT 53.271378 0.426505 31,000 130 501 -64
2019-12-02 13:55:38 GMT 53.275826 0.417723 31,000 130 501 -64
2019-12-02 13:55:34 GMT 53.280304 0.408848 31,000 130 501 -64
2019-12-02 13:55:31 GMT 53.284763 0.400032 31,000 130 501 -64
2019-12-02 13:55:28 GMT 53.291748 0.386169 31,000 130 501 -64
2019-12-02 13:55:24 GMT 53.295822 0.378008 31,000 129 502 0
2019-12-02 13:55:21 GMT 53.301567 0.366588 31,000 129 501 0
2019-12-02 13:55:18 GMT 53.304405 0.360933 31,000 129 501 0
2019-12-02 13:55:15 GMT 53.308552 0.352613 31,000 129 501 0
2019-12-02 13:55:12 GMT 53.314270 0.341204 31,000 129 501 0
2019-12-02 13:55:09 GMT 53.319031 0.331709 31,000 129 502 0
2019-12-02 13:55:06 GMT 53.322510 0.324646 31,000 129 502 0
2019-12-02 13:55:03 GMT 53.331921 0.305759 31,000 129 502 0
2019-12-02 13:55:00 GMT 53.331921 0.305759 31,000 129 502 0
2019-12-02 13:54:56 GMT 53.336109 0.297439 31,000 129 502 0
2019-12-02 13:54:53 GMT 53.341789 0.286048 31,000 129 502 0
2019-12-02 13:54:50 GMT 53.346817 0.275914 31,000 129 502 0
2019-12-02 13:54:47 GMT 53.350662 0.268302 31,000 129 502 0
2019-12-02 13:54:44 GMT 53.358902 0.251744 31,000 129 502 0
2019-12-02 13:54:38 GMT 53.369579 0.230471 31,000 129 502 0
2019-12-02 13:54:35 GMT 53.369579 0.230471 31,000 129 502 0
2019-12-02 13:54:32 GMT 53.373489 0.222635 31,000 129 502 0
2019-12-02 13:54:29 GMT 53.377029 0.215607 31,000 129 502 0
2019-12-02 13:54:26 GMT 53.383034 0.203570 31,000 129 503 0
2019-12-02 13:54:23 GMT 53.385876 0.197835 31,000 129 503 0
2019-12-02 13:54:20 GMT 53.390621 0.188383 31,000 129 503 0
2019-12-02 13:54:17 GMT 53.395416 0.178851 31,000 129 502 0
2019-12-02 13:54:13 GMT 53.402073 0.165522 31,000 129 502 0
2019-12-02 13:54:09 GMT 53.411911 0.145804 31,000 129 502 0
2019-12-02 13:54:03 GMT 53.417202 0.135229 31,000 129 502 0
2019-12-02 13:54:00 GMT 53.419510 0.130580 31,000 129 502 0
2019-12-02 13:53:57 GMT 53.425552 0.118417 31,000 129 502 0
2019-12-02 13:53:54 GMT 53.430611 0.108248 31,000 129 502 0
2019-12-02 13:53:51 GMT 53.435074 0.099269 31,000 129 502 0
2019-12-02 13:53:48 GMT 53.438507 0.092364 31,000 129 502 0
2019-12-02 13:53:45 GMT 53.442295 0.084740 31,000 129 502 0
2019-12-02 13:53:42 GMT 53.446114 0.077066 31,000 129 502 0
2019-12-02 13:53:39 GMT 53.450546 0.068115 31,000 129 502 -64
2019-12-02 13:53:35 GMT 53.457844 0.053397 31,000 129 502 0
2019-12-02 13:53:32 GMT 53.461288 0.046450 31,000 129 502 0
2019-12-02 13:53:29 GMT 53.472088 0.024719 31,000 129 502 -64
2019-12-02 13:53:26 GMT 53.472088 0.024719 31,000 129 502 -64
2019-12-02 13:53:22 GMT 53.478092 0.012602 31,000 129 502 -64
2019-12-02 13:53:19 GMT 53.482189 0.004362 31,000 129 502 0
2019-12-02 13:53:16 GMT 53.488495 -0.008475 31,000 129 502 0
2019-12-02 13:53:13 GMT 53.490692 -0.012870 31,000 129 502 0
2019-12-02 13:53:10 GMT 53.494858 -0.021266 31,000 129 502 0
2019-12-02 13:53:07 GMT 53.497971 -0.027623 31,000 129 502 0
2019-12-02 13:53:03 GMT 53.506489 -0.044915 31,000 129 502 0
2019-12-02 13:53:00 GMT 53.509331 -0.050650 31,000 129 502 0
2019-12-02 13:52:57 GMT 53.514999 -0.062151 31,000 129 502 0
2019-12-02 13:52:53 GMT 53.519432 -0.071169 31,000 129 502 0
2019-12-02 13:52:50 GMT 53.523529 -0.079489 31,000 129 502 0
2019-12-02 13:52:47 GMT 53.529190 -0.091030 31,000 129 502 0
2019-12-02 13:52:44 GMT 53.535118 -0.102997 31,000 129 502 0
2019-12-02 13:52:41 GMT 53.542431 -0.117941 31,000 129 502 0
2019-12-02 13:52:38 GMT 53.545921 -0.124969 31,000 129 502 -64
2019-12-02 13:52:32 GMT 53.551228 -0.135794 31,000 129 502 0
2019-12-02 13:52:29 GMT 53.555977 -0.145407 31,000 129 502 0
2019-12-02 13:52:25 GMT 53.561981 -0.157686 31,000 129 502 0
2019-12-02 13:52:22 GMT 53.565765 -0.165423 31,000 129 502 0
2019-12-02 13:52:19 GMT 53.570778 -0.175620 31,000 129 502 0
2019-12-02 13:52:16 GMT 53.573338 -0.180790 31,000 129 502 0
2019-12-02 13:52:13 GMT 53.583435 -0.201364 31,000 129 502 0
2019-12-02 13:52:10 GMT 53.583435 -0.201364 31,000 129 502 0
2019-12-02 13:52:07 GMT 53.589027 -0.212779 31,000 129 505 0
2019-12-02 13:52:04 GMT 53.592499 -0.219884 31,000 129 503 -64
2019-12-02 13:52:01 GMT 53.597580 -0.230242 31,000 129 502 0
2019-12-02 13:51:58 GMT 53.602249 -0.239841 31,000 129 503 -64
2019-12-02 13:51:54 GMT 53.611404 -0.258493 31,000 129 503 -64
2019-12-02 13:51:51 GMT 53.611404 -0.258493 31,000 129 503 -64
2019-12-02 13:51:48 GMT 53.616943 -0.269871 31,000 129 503 0
2019-12-02 13:51:45 GMT 53.620193 -0.276542 31,000 129 505 0
2019-12-02 13:51:42 GMT 53.624641 -0.285564 31,000 129 503 0
2019-12-02 13:51:39 GMT 53.629074 -0.294669 31,000 129 503 0
2019-12-02 13:51:35 GMT 53.634743 -0.306244 31,000 129 503 0
2019-12-02 13:51:32 GMT 53.644798 -0.326843 31,000 129 503 0
2019-12-02 13:51:29 GMT 53.644798 -0.326843 31,000 129 503 0
2019-12-02 13:51:26 GMT 53.648575 -0.334534 31,000 129 503 0
2019-12-02 13:51:23 GMT 53.653976 -0.345520 31,000 129 504 0
2019-12-02 13:51:20 GMT 53.656815 -0.351327 31,000 129 505 0
2019-12-02 13:51:17 GMT 53.663452 -0.364903 31,000 129 504 0
2019-12-02 13:51:14 GMT 53.665649 -0.369376 31,000 129 505 0
2019-12-02 13:51:11 GMT 53.671333 -0.381048 31,000 129 505 0
2019-12-02 13:51:08 GMT 53.674171 -0.386864 31,000 129 506 0
2019-12-02 13:51:05 GMT 53.680222 -0.399143 31,000 129 505 0
2019-12-02 13:51:02 GMT 53.683716 -0.406252 31,000 129 505 0
2019-12-02 13:50:59 GMT 53.688812 -0.416617 31,000 129 506 0
2019-12-02 13:50:56 GMT 53.694561 -0.428305 31,000 129 506 64
2019-12-02 13:50:53 GMT 53.696732 -0.432783 31,000 129 506 64
2019-12-02 13:50:50 GMT 53.700851 -0.441101 31,000 129 506 64
2019-12-02 13:50:47 GMT 53.706573 -0.452782 31,000 129 506 64
2019-12-02 13:50:43 GMT 53.713943 -0.467704 31,000 129 507 64
2019-12-02 13:50:40 GMT 53.716164 -0.472170 31,000 129 507 128
2019-12-02 13:50:37 GMT 53.726032 -0.492365 30,975 129 506 128
2019-12-02 13:50:34 GMT 53.730408 -0.501413 30,975 129 505 128
2019-12-02 13:50:31 GMT 53.730408 -0.501413 30,975 129 505 128
2019-12-02 13:50:28 GMT 53.739902 -0.520881 30,975 129 505 192
2019-12-02 13:50:25 GMT 53.739902 -0.520881 30,975 128 490 1984
2019-12-02 13:50:22 GMT 53.743347 -0.528071 30,975 129 503 320
2019-12-02 13:50:19 GMT 53.748886 -0.539461 30,875 128 496 640
2019-12-02 13:50:16 GMT 53.752441 -0.546884 30,925 128 499 576
2019-12-02 13:50:13 GMT 53.758804 -0.560141 30,875 128 492 896
2019-12-02 13:50:10 GMT 53.765972 -0.575086 30,850 128 494 768
2019-12-02 13:50:07 GMT 53.765972 -0.575086 30,850 128 496 640
2019-12-02 13:50:04 GMT 53.769104 -0.581569 30,775 128 494 832
2019-12-02 13:50:01 GMT 53.775143 -0.594312 30,750 147 482 1472
2019-12-02 13:49:58 GMT 53.776958 -0.598189 30,750 128 492 1088
2019-12-02 13:49:55 GMT 53.781895 -0.608449 30,650 128 491 1152
2019-12-02 13:49:52 GMT 53.786682 -0.618609 30,625 128 490 1472
2019-12-02 13:49:49 GMT 53.790924 -0.627594 30,525 128 489 1792
2019-12-02 13:49:46 GMT 53.794830 -0.635795 30,450 128 490 1856
2019-12-02 13:49:43 GMT 53.799316 -0.645368 30,375 128 490 1920
2019-12-02 13:49:40 GMT 53.807404 -0.662653 30,250 128 490 1984
2019-12-02 13:49:34 GMT 53.813129 -0.674771 30,025 128 491 1984
2019-12-02 13:49:31 GMT 53.816757 -0.682408 29,975 129 492 1920
2019-12-02 13:49:28 GMT 53.821381 -0.691825 29,825 131 494 1856
2019-12-02 13:49:25 GMT 53.829208 -0.706578 29,600 137 500 1792
2019-12-02 13:49:22 GMT 53.836487 -0.718820 29,650 136 498 1792
2019-12-02 13:49:19 GMT 53.836487 -0.718820 29,575 137 500 1792
2019-12-02 13:49:16 GMT 53.839432 -0.723320 29,525 138 500 1792
2019-12-02 13:49:13 GMT 53.844681 -0.730983 29,300 143 504 1664
2019-12-02 13:49:10 GMT 53.857269 -0.747149 29,275 144 504 1600
2019-12-02 13:49:07 GMT 53.857269 -0.747149 29,225 145 505 1664
2019-12-02 13:49:04 GMT 53.868942 -0.760254 29,125 146 505 1728
2019-12-02 13:49:01 GMT 53.868942 -0.760254 29,050 147 505 1728
2019-12-02 13:48:58 GMT 53.874763 -0.766539 29,000 147 505 1728
2019-12-02 13:48:55 GMT 53.879002 -0.771143 28,900 147 505 1664
2019-12-02 13:48:52 GMT 53.886017 -0.778695 28,775 147 504 1536
2019-12-02 13:48:49 GMT 53.889847 -0.782937 28,175 147 501 1280
2019-12-02 13:48:46 GMT 53.898647 -0.792470 28,650 147 504 1536
2019-12-02 13:48:43 GMT 53.903301 -0.797478 28,625 147 504 1600
2019-12-02 13:48:40 GMT 53.909180 -0.803807 28,475 147 503 2112
2019-12-02 13:48:37 GMT 53.919205 -0.814715 28,200 147 503 2240
2019-12-02 13:48:31 GMT 53.928349 -0.824702 28,175 147 504 1344
2019-12-02 13:48:25 GMT 53.937973 -0.835196 28,075 147 502 1280
2019-12-02 13:48:22 GMT 53.943012 -0.840616 28,000 147 502 1280
2019-12-02 13:48:19 GMT 53.951248 -0.849636 27,925 147 501 1280
2019-12-02 13:48:16 GMT 53.956696 -0.855521 27,850 147 500 1408
2019-12-02 13:48:13 GMT 53.962471 -0.861781 27,800 147 500 1344
2019-12-02 13:48:10 GMT 53.967869 -0.867678 27,700 147 497 1152
2019-12-02 13:48:07 GMT 53.973221 -0.873570 27,675 147 497 1088
2019-12-02 13:48:04 GMT 53.979721 -0.880633 27,625 147 497 1024
2019-12-02 13:48:01 GMT 53.984348 -0.885692 27,575 147 494 1024
2019-12-02 13:47:58 GMT 53.990494 -0.892397 27,525 147 494 1024
2019-12-02 13:47:55 GMT 53.996246 -0.898682 27,500 147 493 1024
2019-12-02 13:47:52 GMT 54.002380 -0.905352 27,300 147 482 1472
2019-12-02 13:47:49 GMT 54.008045 -0.911542 27,350 147 490 1088
2019-12-02 13:47:46 GMT 54.018997 -0.923558 27,300 147 489 1088
2019-12-02 13:47:43 GMT 54.018997 -0.923558 24,575 147 488 1088
2019-12-02 13:47:40 GMT 54.023827 -0.928829 27,225 147 488 1152
2019-12-02 13:47:37 GMT 54.028748 -0.934230 27,075 147 485 1344
2019-12-02 13:47:34 GMT 54.035931 -0.942078 27,025 147 484 1408
2019-12-02 13:47:31 GMT 54.047195 -0.954437 26,875 147 483 1408
2019-12-02 13:47:25 GMT 54.054382 -0.962402 26,850 147 482 1472
2019-12-02 13:47:22 GMT 54.059952 -0.968493 26,800 147 482 1472
2019-12-02 13:47:19 GMT 54.063953 -0.972856 26,675 147 479 1408
2019-12-02 13:47:16 GMT 54.070984 -0.980611 26,400 147 477 1472
2019-12-02 13:47:13 GMT 54.074707 -0.984689 26,550 147 479 1408
2019-12-02 13:47:10 GMT 54.082573 -0.993374 26,500 147 478 1408
2019-12-02 13:47:07 GMT 54.087975 -0.999352 26,425 147 477 1472
2019-12-02 13:47:04 GMT 54.093246 -1.005092 26,425 147 477 1472
2019-12-02 13:47:01 GMT 54.096771 -1.009016 26,325 147 476 1536
2019-12-02 13:46:58 GMT 54.104687 -1.017689 26,200 147 475 1664
2019-12-02 13:46:55 GMT 54.116745 -1.031018 26,100 147 473 1728
2019-12-02 13:46:52 GMT 54.116745 -1.031018 26,050 147 473 1664
2019-12-02 13:46:49 GMT 54.120346 -1.034912 25,725 147 467 1472
2019-12-02 13:46:46 GMT 54.125031 -1.040066 25,875 147 472 1728
2019-12-02 13:46:43 GMT 54.131332 -1.046997 25,725 147 471 1792
2019-12-02 13:46:39 GMT 54.138344 -1.054768 25,700 147 471 1728
2019-12-02 13:46:36 GMT 54.141884 -1.058646 25,625 147 471 1664
2019-12-02 13:46:33 GMT 54.148445 -1.065835 25,500 147 470 1664
2019-12-02 13:46:30 GMT 54.155849 -1.073994 25,425 147 469 1600
2019-12-02 13:46:26 GMT 54.161667 -1.080457 25,375 147 468 1600
2019-12-02 13:46:23 GMT 54.172466 -1.092332 25,200 147 467 1472
2019-12-02 13:46:20 GMT 54.172466 -1.092332 25,175 146 466 1472
2019-12-02 13:46:17 GMT 54.179775 -1.100410 25,050 147 464 1536
2019-12-02 13:46:13 GMT 54.188107 -1.109700 25,025 146 464 1536
2019-12-02 13:46:10 GMT 54.192856 -1.114870 24,900 146 464 1536
2019-12-02 13:46:07 GMT 54.195831 -1.118251 24,850 147 456 1728
2019-12-02 13:46:04 GMT 54.204494 -1.127795 24,800 147 461 1152
2019-12-02 13:46:01 GMT 54.207275 -1.130886 24,725 147 458 1280
2019-12-02 13:45:58 GMT 54.213387 -1.137650 24,675 147 456 1728
2019-12-02 13:45:55 GMT 54.216431 -1.141009 24,550 147 456 1792
2019-12-02 13:45:52 GMT 54.223572 -1.148935 24,525 147 455 1856
2019-12-02 13:45:49 GMT 54.227676 -1.153403 24,425 147 455 1920
2019-12-02 13:45:46 GMT 54.238941 -1.165924 24,250 147 454 1920
2019-12-02 13:45:43 GMT 54.244217 -1.171770 24,175 147 454 1920
2019-12-02 13:45:40 GMT 54.244217 -1.171770 24,150 147 454 1920
2019-12-02 13:45:36 GMT 54.255844 -1.184562 24,025 146 453 1984
2019-12-02 13:45:33 GMT 54.255844 -1.184562 23,875 146 452 1984
2019-12-02 13:45:30 GMT 54.262547 -1.192097 23,775 147 451 2048
2019-12-02 13:45:27 GMT 54.268131 -1.198318 23,675 147 451 1984
2019-12-02 13:45:24 GMT 54.273239 -1.203945 23,625 147 450 1856
2019-12-02 13:45:21 GMT 54.276398 -1.207397 23,550 146 450 1920
2019-12-02 13:45:18 GMT 54.282749 -1.214489 23,475 146 449 1856
2019-12-02 13:45:15 GMT 54.287521 -1.219806 23,075 146 447 1920
2019-12-02 13:45:12 GMT 54.297867 -1.231277 23,150 146 447 1920
2019-12-02 13:45:06 GMT 54.303093 -1.237044 23,000 146 446 1792
2019-12-02 13:45:02 GMT 54.309723 -1.244444 22,950 146 446 1792
2019-12-02 13:44:59 GMT 54.316547 -1.252025 22,875 147 444 1920
2019-12-02 13:44:56 GMT 54.319977 -1.255834 22,825 147 444 1920
2019-12-02 13:44:53 GMT 54.325809 -1.262346 22,600 146 442 2112
2019-12-02 13:44:50 GMT 54.330231 -1.267224 22,375 146 442 2112
2019-12-02 13:44:47 GMT 54.336456 -1.274091 22,425 147 441 2176
2019-12-02 13:44:44 GMT 54.342682 -1.281038 22,325 147 441 2176
2019-12-02 13:44:40 GMT 54.347736 -1.286649 22,275 147 441 2176
2019-12-02 13:44:37 GMT 54.352486 -1.291976 22,050 146 434 1536
2019-12-02 13:44:34 GMT 54.364471 -1.305273 21,650 146 437 1728
2019-12-02 13:44:30 GMT 54.364471 -1.305273 21,825 146 437 1728
2019-12-02 13:44:27 GMT 54.374542 -1.316501 21,575 146 435 1600
2019-12-02 13:44:24 GMT 54.374542 -1.316501 21,550 146 433 1472
2019-12-02 13:44:21 GMT 54.379211 -1.321671 21,650 146 433 1472
2019-12-02 13:44:17 GMT 54.386032 -1.329346 21,450 146 423 2304
2019-12-02 13:44:14 GMT 54.392799 -1.336920 21,375 146 427 1856
2019-12-02 13:44:11 GMT 54.397964 -1.342746 21,325 146 427 1920
2019-12-02 13:44:08 GMT 54.400944 -1.346075 21,250 146 426 2048
2019-12-02 13:44:05 GMT 54.405853 -1.351561 21,200 146 426 2176
2019-12-02 13:44:02 GMT 54.412537 -1.359073 21,100 146 426 2304
2019-12-02 13:43:59 GMT 54.417068 -1.364163 20,975 146 425 2368
2019-12-02 13:43:56 GMT 54.419540 -1.366909 20,725 146 423 2304
2019-12-02 13:43:53 GMT 54.425804 -1.374040 20,775 146 424 2304
2019-12-02 13:43:50 GMT 54.432507 -1.381531 20,550 146 423 2304
2019-12-02 13:43:47 GMT 54.438034 -1.387751 20,350 146 417 2816
2019-12-02 13:43:43 GMT 54.441879 -1.392113 20,350 146 421 2240
2019-12-02 13:43:40 GMT 54.449780 -1.401007 20,250 146 421 2240
2019-12-02 13:43:36 GMT 54.452618 -1.404169 20,150 146 419 2176
2019-12-02 13:43:33 GMT 54.464035 -1.416994 19,575 146 417 2752
2019-12-02 13:43:30 GMT 54.464035 -1.416994 19,750 146 417 2752
2019-12-02 13:43:24 GMT 54.473007 -1.427092 19,450 146 418 2752
2019-12-02 13:43:21 GMT 54.482319 -1.437544 19,425 146 418 2752
2019-12-02 13:43:18 GMT 54.482319 -1.437544 19,225 146 418 2752
2019-12-02 13:43:14 GMT 54.488525 -1.444460 19,200 146 418 2752
2019-12-02 13:43:11 GMT 54.494003 -1.450611 19,075 146 418 2752
2019-12-02 13:43:08 GMT 54.501499 -1.459018 18,900 146 417 2432
2019-12-02 13:43:05 GMT 54.505371 -1.463444 18,750 146 416 2368
2019-12-02 13:42:59 GMT 54.514984 -1.474188 18,525 146 414 2368
2019-12-02 13:42:56 GMT 54.518070 -1.477661 18,400 146 414 2432
2019-12-02 13:42:53 GMT 54.522541 -1.482738 18,275 146 413 2432
2019-12-02 13:42:50 GMT 54.528683 -1.489646 18,200 146 413 2368
2019-12-02 13:42:46 GMT 54.533386 -1.494973 18,075 146 411 2240
2019-12-02 13:42:43 GMT 54.539200 -1.501492 17,950 146 410 2240
2019-12-02 13:42:40 GMT 54.543953 -1.506875 17,700 146 408 2624
2019-12-02 13:42:37 GMT 54.548283 -1.511785 17,675 146 407 2816
2019-12-02 13:42:34 GMT 54.553635 -1.517861 17,600 146 407 2816
2019-12-02 13:42:31 GMT 54.563690 -1.529264 17,325 146 407 3200
2019-12-02 13:42:28 GMT 54.563690 -1.529264 17,225 146 407 3200
2019-12-02 13:42:25 GMT 54.568115 -1.534257 17,125 146 407 3200
2019-12-02 13:42:22 GMT 54.580811 -1.548668 16,450 146 404 2368
2019-12-02 13:42:17 GMT 54.580811 -1.548668 16,700 146 408 2688
2019-12-02 13:42:13 GMT 54.588821 -1.557716 16,550 146 407 2432
2019-12-02 13:42:10 GMT 54.590286 -1.559332 16,425 146 406 2368
2019-12-02 13:42:07 GMT 54.595276 -1.565067 16,300 146 405 2368
2019-12-02 13:42:04 GMT 54.599911 -1.570296 16,075 146 404 2304
2019-12-02 13:42:01 GMT 54.611267 -1.583196 16,050 146 403 2240
2019-12-02 13:41:58 GMT 54.611267 -1.583196 15,950 146 399 2688
2019-12-02 13:41:55 GMT 54.613953 -1.586151 15,725 146 399 2688
2019-12-02 13:41:52 GMT 54.619183 -1.592102 15,750 146 399 2560
2019-12-02 13:41:47 GMT 54.625717 -1.599561 15,550 146 398 3136
2019-12-02 13:41:44 GMT 54.631004 -1.605502 15,375 146 398 3456
2019-12-02 13:41:41 GMT 54.634964 -1.609982 15,175 146 399 3904
2019-12-02 13:41:37 GMT 54.643158 -1.619272 14,625 146 400 3712
2019-12-02 13:41:33 GMT 54.648376 -1.625169 14,725 146 401 3648
2019-12-02 13:41:30 GMT 54.652699 -1.630138 14,375 146 401 3264
2019-12-02 13:41:27 GMT 54.657303 -1.635347 14,225 146 401 2944
2019-12-02 13:41:24 GMT 54.663940 -1.642860 14,075 146 401 2816
2019-12-02 13:41:21 GMT 54.672207 -1.652277 14,000 146 399 2560
2019-12-02 13:41:17 GMT 54.672207 -1.652277 13,675 146 398 2432
2019-12-02 13:41:14 GMT 54.678070 -1.658936 13,775 146 386 2368
2019-12-02 13:41:11 GMT 54.682354 -1.663846 13,625 146 396 2304
2019-12-02 13:41:07 GMT 54.689163 -1.671618 13,475 146 394 2112
2019-12-02 13:41:04 GMT 54.692688 -1.675577 13,350 146 389 2240
2019-12-02 13:41:01 GMT 54.697540 -1.681151 13,300 146 390 2176
2019-12-02 13:40:58 GMT 54.701385 -1.685513 13,225 146 389 2240
2019-12-02 13:40:55 GMT 54.707165 -1.692061 13,050 146 387 2368
2019-12-02 13:40:51 GMT 54.717640 -1.703963 12,875 146 384 2496
2019-12-02 13:40:48 GMT 54.717640 -1.703963 12,750 146 382 2560
2019-12-02 13:40:45 GMT 54.720200 -1.706793 12,675 146 381 2560
2019-12-02 13:40:42 GMT 54.726158 -1.713534 12,575 146 381 2496
2019-12-02 13:40:39 GMT 54.730591 -1.718553 12,325 146 379 2368
2019-12-02 13:40:36 GMT 54.735516 -1.724188 12,125 146 376 2240
2019-12-02 13:40:33 GMT 54.738960 -1.728099 12,200 146 374 2304
2019-12-02 13:40:30 GMT 54.742966 -1.732677 12,100 146 373 2240
2019-12-02 13:40:27 GMT 54.748718 -1.739233 12,000 146 370 1984
2019-12-02 13:40:24 GMT 54.752472 -1.743514 11,875 146 368 1856
2019-12-02 13:40:21 GMT 54.756653 -1.748324 11,850 146 367 1792
2019-12-02 13:40:17 GMT 54.761490 -1.753935 11,650 145 351 1216
2019-12-02 13:40:13 GMT 54.774033 -1.768556 11,550 145 354 1216
2019-12-02 13:40:09 GMT 54.774033 -1.768556 11,450 145 350 1216
2019-12-02 13:40:05 GMT 54.777740 -1.772919 11,400 145 340 1216
2019-12-02 13:40:01 GMT 54.783646 -1.779866 11,325 145 340 1216
2019-12-02 13:39:58 GMT 54.788353 -1.785445 11,250 145 335 1344
2019-12-02 13:39:54 GMT 54.791939 -1.789773 11,200 144 327 1792
2019-12-02 13:39:51 GMT 54.796188 -1.794891 11,100 145 328 1664
2019-12-02 13:39:48 GMT 54.800583 -1.800304 11,075 144 327 1792
2019-12-02 13:39:44 GMT 54.806122 -1.807009 10,850 144 319 2496
2019-12-02 13:39:41 GMT 54.809208 -1.810747 10,750 145 314 3904
2019-12-02 13:39:37 GMT 54.812805 -1.815168 10,675 144 317 2944
2019-12-02 13:39:32 GMT 54.819218 -1.822981 10,325 145 314 3648
2019-12-02 13:39:28 GMT 54.823242 -1.827850 10,100 145 314 4032
2019-12-02 13:39:24 GMT 54.828342 -1.833884 9,825 148 317 3328
2019-12-02 13:39:21 GMT 54.831482 -1.837463 9,650 147 317 3648
2019-12-02 13:39:18 GMT 54.835182 -1.841542 7,925 200 282 3072
2019-12-02 13:39:13 GMT 54.842926 -1.848450 9,200 160 315 2304
2019-12-02 13:39:09 GMT 54.849152 -1.851862 9,050 170 310 1792
2019-12-02 13:39:02 GMT 54.858135 -1.853693 8,850 184 298 1920
2019-12-02 13:38:59 GMT 54.861439 -1.853527 8,800 185 296 2048
2019-12-02 13:38:55 GMT 54.867493 -1.852362 8,625 200 282 3072
2019-12-02 13:38:51 GMT 54.871948 -1.850631 8,325 200 284 3008
2019-12-02 13:38:48 GMT 54.876526 -1.848127 8,325 200 284 3008
2019-12-02 13:38:40 GMT 54.885727 -1.842553 7,925 200 281 3328
2019-12-02 13:38:37 GMT 54.890121 -1.839806 7,700 200 280 3520
2019-12-02 13:38:31 GMT 54.897125 -1.835525 7,425 200 279 3392
2019-12-02 13:38:28 GMT 54.901520 -1.832719 7,100 199 281 3776
2019-12-02 13:38:21 GMT 54.909248 -1.827975 6,775 200 276 4032
2019-12-02 13:38:17 GMT 54.913670 -1.825312 6,650 200 276 4160
2019-12-02 13:38:11 GMT 54.921616 -1.820499 6,025 200 278 4288
2019-12-02 13:38:05 GMT 54.928894 -1.816056 5,725 200 279 4288
2019-12-02 13:38:00 GMT 54.934155 -1.812911 5,300 199 281 3776
2019-12-02 13:37:51 GMT 54.947342 -1.805555 4,625 197 279 3520
2019-12-02 13:37:40 GMT 54.960735 -1.798928 4,175 195 276 2816
2019-12-02 13:37:35 GMT 54.966789 -1.796265 3,800 194 267 2176
2019-12-02 13:37:30 GMT 54.971741 -1.794084 3,650 194 267 2176
2019-12-02 13:37:26 GMT 54.983459 -1.789317 3,375 194 255 1984
2019-12-02 13:37:20 GMT 54.983459 -1.789317 3,275 194 250 1984
2019-12-02 13:37:09 GMT 54.995407 -1.784067 2,900 197 234 1856
2019-12-02 13:37:05 GMT 54.999840 -1.781699 2,775 201 223 1856
2019-12-02 13:36:57 GMT 55.007172 -1.776715 2,600 205 216 1856
2019-12-02 13:36:47 GMT 55.015594 -1.767829 2,250 227 186 1280
2019-12-02 13:36:37 GMT 55.020950 -1.756439 2,025 242 170 1280
2019-12-02 13:36:25 GMT 55.024372 -1.742581 1,750 248 156 1408
We lost coverage of the aircraft here for a total of 102 minutes
2019-12-02 11:54:27 GMT 55.046951 -1.655690 100 246 119 -704
2019-12-02 11:53:52 GMT 55.055191 -1.624846 500 246 119 -576
2019-12-02 11:53:26 GMT 55.061188 -1.602388 775 246 121 -640
2019-12-02 11:53:17 GMT 55.063202 -1.594714 875 246 121 -640
2019-12-02 11:53:07 GMT 55.065536 -1.585666 1,025 246 124 -704
2019-12-02 11:53:04 GMT 55.066364 -1.582531 1,025 246 126 -576
2019-12-02 11:52:52 GMT 55.069199 -1.571691 1,175 245 141 -384
2019-12-02 11:52:49 GMT 55.070274 -1.567799 1,225 245 141 -384
2019-12-02 11:52:44 GMT 55.071529 -1.562972 1,275 246 150 -832
2019-12-02 11:52:32 GMT 55.075516 -1.547780 1,475 246 160 -1024
2019-12-02 11:52:25 GMT 55.077530 -1.540186 1,575 246 165 -832
2019-12-02 11:52:22 GMT 55.078262 -1.537359 1,675 246 170 -960
2019-12-02 11:52:15 GMT 55.080872 -1.527584 1,725 246 175 -896
2019-12-02 11:52:07 GMT 55.083344 -1.518214 1,775 246 181 -1088
2019-12-02 11:52:04 GMT 55.084751 -1.512951 1,875 246 181 -1088
2019-12-02 11:52:00 GMT 55.085823 -1.508872 1,950 246 182 -1152
2019-12-02 11:51:54 GMT 55.087875 -1.501169 2,075 246 183 -1024
2019-12-02 11:51:49 GMT 55.089706 -1.494221 2,150 246 185 -640
2019-12-02 11:51:44 GMT 55.091446 -1.487517 2,175 246 189 -384
2019-12-02 11:51:40 GMT 55.092911 -1.481862 2,225 246 193 -512
2019-12-02 11:51:34 GMT 55.095226 -1.473000 2,275 246 196 -576
2019-12-02 11:51:29 GMT 55.097134 -1.465676 2,325 246 198 -576
2019-12-02 11:51:24 GMT 55.099091 -1.458193 2,375 246 200 -576
2019-12-02 11:51:19 GMT 55.100811 -1.451527 2,400 246 205 -576
2019-12-02 11:51:14 GMT 55.102936 -1.443490 2,475 246 207 -576
2019-12-02 11:51:11 GMT 55.104538 -1.437351 2,525 246 214 -576
2019-12-02 11:51:04 GMT 55.106964 -1.428223 2,600 246 212 -640
2019-12-02 11:51:00 GMT 55.109070 -1.420387 2,625 246 213 -640
2019-12-02 11:50:53 GMT 55.111313 -1.411905 2,700 246 214 -576
2019-12-02 11:50:50 GMT 55.112869 -1.405834 2,750 246 215 -640
2019-12-02 11:50:43 GMT 55.115433 -1.396152 2,825 246 215 -640
2019-12-02 11:50:39 GMT 55.117310 -1.389043 2,850 246 215 -640
2019-12-02 11:50:33 GMT 55.119598 -1.380238 2,925 246 215 -576
2019-12-02 11:50:27 GMT 55.121994 -1.371127 2,975 246 216 -448
2019-12-02 11:50:23 GMT 55.123856 -1.364053 3,025 246 216 -576
2019-12-02 11:50:20 GMT 55.125156 -1.358975 3,100 246 216 -448
2019-12-02 11:50:14 GMT 55.127953 -1.348239 3,125 246 214 -448
2019-12-02 11:50:07 GMT 55.130310 -1.339120 3,150 246 215 -576
2019-12-02 11:50:03 GMT 55.132000 -1.332675 3,225 246 217 -704
2019-12-02 11:50:00 GMT 55.133492 -1.326932 3,350 246 226 -576
2019-12-02 11:49:53 GMT 55.136192 -1.316528 3,325 246 223 -576
2019-12-02 11:49:48 GMT 55.138474 -1.307789 3,425 246 226 -576
2019-12-02 11:49:43 GMT 55.140610 -1.299618 3,425 246 229 -576
2019-12-02 11:49:38 GMT 55.142895 -1.291060 3,475 246 231 -576
2019-12-02 11:49:33 GMT 55.145641 -1.280573 3,525 246 235 -576
2019-12-02 11:49:28 GMT 55.147476 -1.273768 3,625 246 239 -640
2019-12-02 11:49:23 GMT 55.149830 -1.264843 3,625 246 242 -640
2019-12-02 11:49:18 GMT 55.151733 -1.257531 3,825 246 245 -704
2019-12-02 11:49:12 GMT 55.154617 -1.246464 3,750 246 247 -768
2019-12-02 11:49:08 GMT 55.156532 -1.239125 3,825 246 251 -832
2019-12-02 11:49:03 GMT 55.159283 -1.228554 3,900 246 252 -1216
2019-12-02 11:48:58 GMT 55.161377 -1.220564 4,000 246 252 -1664
2019-12-02 11:48:53 GMT 55.164139 -1.209869 4,150 246 252 -1664
2019-12-02 11:48:48 GMT 55.166172 -1.201921 4,275 246 252 -1728
2019-12-02 11:48:42 GMT 55.169010 -1.190851 4,450 246 252 -1728
2019-12-02 11:48:38 GMT 55.171234 -1.182161 4,600 247 251 -1728
2019-12-02 11:48:32 GMT 55.173759 -1.172291 4,750 247 250 -1856
2019-12-02 11:48:28 GMT 55.175949 -1.163581 4,900 247 250 -1792
2019-12-02 11:48:23 GMT 55.178513 -1.153322 5,050 247 250 -1408
2019-12-02 11:48:17 GMT 55.180710 -1.144678 5,175 247 251 -1280
2019-12-02 11:48:12 GMT 55.185349 -1.126432 5,400 247 256 -1408
2019-12-02 11:48:07 GMT 55.185349 -1.126432 5,400 246 254 -1472
2019-12-02 11:48:02 GMT 55.188190 -1.115695 5,750 247 256 -1408
2019-12-02 11:47:57 GMT 55.190937 -1.104875 5,650 248 255 -1408
2019-12-02 11:47:50 GMT 55.195221 -1.086354 5,900 250 259 -1280
2019-12-02 11:47:47 GMT 55.195221 -1.086354 5,900 250 259 -1280
2019-12-02 11:47:42 GMT 55.197174 -1.077659 6,000 249 259 -1280
2019-12-02 11:47:36 GMT 55.199661 -1.066239 6,125 252 260 -1536
2019-12-02 11:47:30 GMT 55.201969 -1.053522 6,300 260 258 -1664
2019-12-02 11:47:26 GMT 55.203232 -1.045236 6,500 258 260 -1728
2019-12-02 11:47:22 GMT 55.205154 -1.021890 6,750 267 260 -1344
2019-12-02 11:47:15 GMT 55.205154 -1.021890 6,725 267 259 -1408
2019-12-02 11:47:11 GMT 55.205322 -1.015570 6,775 267 260 -1344
2019-12-02 11:47:05 GMT 55.205795 -1.001775 6,925 267 261 -1408
2019-12-02 11:47:02 GMT 55.206066 -0.994512 7,025 267 261 -1472
2019-12-02 11:46:56 GMT 55.206532 -0.981945 7,175 267 262 -1536
2019-12-02 11:46:51 GMT 55.206894 -0.972452 7,450 1 268 -3136
2019-12-02 11:46:44 GMT 55.207581 -0.955003 7,475 267 262 -1664
2019-12-02 11:46:41 GMT 55.207695 -0.950734 7,550 267 262 -1600
2019-12-02 11:46:36 GMT 55.208069 -0.940330 7,700 268 263 -1472
2019-12-02 11:46:32 GMT 55.208256 -0.930342 7,800 271 264 -1344
2019-12-02 11:46:26 GMT 55.207973 -0.916776 7,950 280 264 -1344
2019-12-02 11:46:21 GMT 55.207260 -0.909603 9,700 1 268 -3136
2019-12-02 11:46:15 GMT 55.204605 -0.896759 8,125 298 266 -1152
2019-12-02 11:46:11 GMT 55.202133 -0.889085 8,225 307 269 -1152
2019-12-02 11:46:04 GMT 55.196800 -0.878157 8,375 319 271 -1280
2019-12-02 11:46:01 GMT 55.186523 -0.866143 8,550 344 268 -3264
2019-12-02 11:45:54 GMT 55.186523 -0.866143 8,600 340 278 -1408
2019-12-02 11:45:51 GMT 55.182220 -0.862992 8,675 340 279 -1472
2019-12-02 11:45:44 GMT 55.174164 -0.857903 8,850 341 278 -1856
2019-12-02 11:45:41 GMT 55.170082 -0.855269 8,975 341 277 -2304
2019-12-02 11:45:33 GMT 55.159424 -0.848613 9,250 341 273 -3072
2019-12-02 11:45:29 GMT 55.154572 -0.845705 9,600 343 269 -3328
2019-12-02 11:45:23 GMT 55.149261 -0.842716 9,850 344 268 -3264
2019-12-02 11:45:20 GMT 55.145176 -0.840787 10,050 347 268 -3136
2019-12-02 11:45:14 GMT 55.138184 -0.838758 10,275 356 267 -3328
2019-12-02 11:45:10 GMT 55.133446 -0.838706 11,025 6 268 -2944
2019-12-02 11:45:03 GMT 55.125019 -0.841120 11,025 21 274 -2688
2019-12-02 11:45:00 GMT 55.120224 -0.844116 11,025 23 274 -2688
2019-12-02 11:44:54 GMT 55.113102 -0.851108 11,350 36 279 -2304
2019-12-02 11:44:50 GMT 55.110214 -0.854936 11,450 41 283 -1920
2019-12-02 11:44:44 GMT 55.104080 -0.865820 11,600 51 293 -1536
2019-12-02 11:44:41 GMT 55.099091 -0.879073 11,800 62 306 -1280
2019-12-02 11:44:33 GMT 55.096848 -0.887227 11,950 70 317 -1408
2019-12-02 11:44:29 GMT 55.094559 -0.899182 12,000 78 329 -1344
2019-12-02 11:44:24 GMT 55.093140 -0.910250 12,075 79 331 -1408
2019-12-02 11:44:21 GMT 55.092270 -0.918732 12,150 80 335 -1408
2019-12-02 11:44:18 GMT 55.091446 -0.927295 12,450 80 339 -1408
2019-12-02 11:44:12 GMT 55.089916 -0.942411 12,350 80 349 -1600
2019-12-02 11:44:09 GMT 55.088940 -0.952481 12,550 80 357 -1728
2019-12-02 11:44:03 GMT 55.087078 -0.970625 12,625 79 361 -1792
2019-12-02 11:43:58 GMT 55.085960 -0.981612 12,725 79 367 -2048
2019-12-02 11:43:54 GMT 55.084660 -0.994679 12,875 79 371 -2304
2019-12-02 11:43:50 GMT 55.083344 -1.007269 13,050 79 376 -3776
2019-12-02 11:43:43 GMT 55.080097 -1.037792 13,600 79 378 -4416
2019-12-02 11:43:40 GMT 55.080097 -1.037792 14,150 79 378 -4544
2019-12-02 11:43:32 GMT 55.076698 -1.068504 14,325 78 379 -4672
2019-12-02 11:43:29 GMT 55.076698 -1.068504 14,525 78 379 -4672
2019-12-02 11:43:22 GMT 55.073254 -1.098633 15,075 78 380 -4096
2019-12-02 11:43:19 GMT 55.073254 -1.098633 15,275 78 385 -4032
2019-12-02 11:43:14 GMT 55.071396 -1.114789 15,600 78 387 -4288
2019-12-02 11:43:11 GMT 55.069481 -1.131509 16,075 78 386 -4160
2019-12-02 11:43:08 GMT 55.067993 -1.144659 16,100 78 387 -4224
2019-12-02 11:43:04 GMT 55.067993 -1.144659 16,175 79 388 -4224
2019-12-02 11:43:01 GMT 55.065804 -1.164301 16,825 79 394 -3840
2019-12-02 11:42:58 GMT 55.065804 -1.164301 16,675 79 392 -3840
2019-12-02 11:42:54 GMT 55.063663 -1.184193 17,025 79 395 -3904
2019-12-02 11:42:48 GMT 55.062378 -1.196217 17,325 79 397 -4608
2019-12-02 11:42:41 GMT 55.060169 -1.216986 17,825 79 395 -5888
2019-12-02 11:42:38 GMT 55.059036 -1.227641 18,150 79 394 -5952
2019-12-02 11:42:31 GMT 55.056820 -1.248363 19,000 79 391 -5760
2019-12-02 11:42:28 GMT 55.056026 -1.255521 19,000 79 391 -5696
2019-12-02 11:42:25 GMT 55.054825 -1.267467 19,375 79 390 -5568
2019-12-02 11:42:22 GMT 55.053841 -1.276661 19,825 80 389 -5376
2019-12-02 11:42:19 GMT 55.053143 -1.283985 19,850 80 389 -5312
2019-12-02 11:42:16 GMT 55.052124 -1.294448 20,275 80 388 -5312
2019-12-02 11:42:13 GMT 55.051392 -1.302365 20,650 81 383 -5248
2019-12-02 11:42:10 GMT 55.050396 -1.312783 20,575 80 385 -5376
2019-12-02 11:42:07 GMT 55.049561 -1.321995 21,100 81 383 -5248
2019-12-02 11:42:04 GMT 55.048599 -1.332496 21,275 81 383 -5248
2019-12-02 11:42:01 GMT 55.047958 -1.340170 22,075 82 370 -4096
2019-12-02 11:41:58 GMT 55.047089 -1.349864 22,225 81 380 -5248
2019-12-02 11:41:55 GMT 55.046310 -1.359558 21,800 81 379 -5248
2019-12-02 11:41:51 GMT 55.045368 -1.371127 22,325 82 376 -5056
2019-12-02 11:41:48 GMT 55.044662 -1.380157 22,575 82 376 -4928
2019-12-02 11:41:45 GMT 55.043972 -1.389105 23,225 82 374 -4672
2019-12-02 11:41:42 GMT 55.043133 -1.399841 23,075 82 373 -4544
2019-12-02 11:41:39 GMT 55.042576 -1.406833 23,350 82 370 -4096
2019-12-02 11:41:36 GMT 55.041828 -1.416404 23,500 82 370 -4096
2019-12-02 11:41:33 GMT 55.040993 -1.427474 23,825 82 370 -4096
2019-12-02 11:41:30 GMT 55.040386 -1.435297 23,950 82 370 -4096
2019-12-02 11:41:27 GMT 55.039078 -1.452296 24,175 82 370 -4096
2019-12-02 11:41:24 GMT 55.038479 -1.459850 24,325 82 369 -4160
2019-12-02 11:41:21 GMT 55.038479 -1.459850 24,475 83 369 -768
2019-12-02 11:41:18 GMT 55.037781 -1.469255 24,750 82 368 -4032
2019-12-02 11:41:15 GMT 55.036942 -1.481074 24,925 82 367 -3904
2019-12-02 11:41:12 GMT 55.036560 -1.486143 25,175 83 367 -3712
2019-12-02 11:41:09 GMT 55.036102 -1.493059 25,250 83 367 -3456
2019-12-02 11:41:06 GMT 55.035416 -1.503673 25,375 83 367 -3392
2019-12-02 11:41:02 GMT 55.034637 -1.515548 25,675 83 366 -2368
2019-12-02 11:40:59 GMT 55.033905 -1.526049 25,800 83 367 -1728
2019-12-02 11:40:56 GMT 55.033493 -1.532997 25,850 83 367 -1728
2019-12-02 11:40:53 GMT 55.032578 -1.546164 25,975 82 402 -1344
2019-12-02 11:40:50 GMT 55.032242 -1.551236 26,000 83 371 -192
2019-12-02 11:40:47 GMT 55.031708 -1.559412 25,975 82 375 0
2019-12-02 11:40:43 GMT 55.030701 -1.573388 26,000 82 379 0
2019-12-02 11:40:40 GMT 55.030197 -1.580577 26,000 82 379 0
2019-12-02 11:40:37 GMT 55.029541 -1.589688 25,975 82 389 -256
2019-12-02 11:40:33 GMT 55.028549 -1.602792 26,000 82 391 -384
2019-12-02 11:40:30 GMT 55.027863 -1.612077 26,000 82 393 -512
2019-12-02 11:40:27 GMT 55.027130 -1.621453 26,075 82 397 -832
2019-12-02 11:40:24 GMT 55.026421 -1.630804 26,050 82 397 -832
2019-12-02 11:40:20 GMT 55.025444 -1.643788 26,225 102 434 -3136
2019-12-02 11:40:17 GMT 55.024704 -1.653281 26,175 82 402 -1408
2019-12-02 11:40:14 GMT 55.023880 -1.663540 26,275 82 405 -1728
2019-12-02 11:40:11 GMT 55.023350 -1.670504 26,475 82 409 -1856
2019-12-02 11:40:08 GMT 55.021812 -1.691312 26,425 82 407 -1856
2019-12-02 11:40:05 GMT 55.021812 -1.691312 26,600 83 410 -1920
2019-12-02 11:40:02 GMT 55.021160 -1.700301 26,850 90 423 -2752
2019-12-02 11:39:56 GMT 55.019989 -1.719926 26,825 88 420 -2560
2019-12-02 11:39:53 GMT 55.019623 -1.732124 26,925 90 423 -2752
2019-12-02 11:39:50 GMT 55.019943 -1.751027 27,875 96 428 -3328
2019-12-02 11:39:44 GMT 55.020676 -1.761932 27,450 102 434 -3136
2019-12-02 11:39:41 GMT 55.022091 -1.775457 27,525 102 434 -3136
2019-12-02 11:39:37 GMT 55.023487 -1.785944 27,775 106 440 -2048
2019-12-02 11:39:34 GMT 55.025482 -1.797476 27,900 120 471 -128
2019-12-02 11:39:31 GMT 55.027313 -1.806766 27,950 123 479 -320
2019-12-02 11:39:28 GMT 55.029541 -1.816822 27,975 114 455 -320
2019-12-02 11:39:25 GMT 55.035919 -1.840210 28,000 115 458 -64
2019-12-02 11:39:22 GMT 55.035919 -1.840210 28,000 120 471 -128
2019-12-02 11:39:19 GMT 55.037685 -1.845870 28,000 120 471 -128
2019-12-02 11:39:16 GMT 55.041271 -1.856273 28,000 123 477 -256
2019-12-02 11:39:13 GMT 55.044624 -1.865096 28,000 128 489 -768
2019-12-02 11:39:10 GMT 55.047649 -1.872586 28,075 131 495 -1088
2019-12-02 11:39:07 GMT 55.053795 -1.886486 28,075 130 493 -1024
2019-12-02 11:39:04 GMT 55.057194 -1.893477 28,125 131 496 -1216
2019-12-02 11:39:01 GMT 55.061474 -1.901800 28,200 134 501 -1600
2019-12-02 11:38:58 GMT 55.065899 -1.909790 28,200 135 502 -1664
2019-12-02 11:38:54 GMT 55.076248 -1.926808 28,725 139 506 -2112
2019-12-02 11:38:51 GMT 55.080517 -1.933261 28,525 140 506 -2176
2019-12-02 11:38:48 GMT 55.084797 -1.939253 28,625 142 506 -2368
2019-12-02 11:38:45 GMT 55.089172 -1.945163 28,775 147 504 -3456
2019-12-02 11:38:42 GMT 55.100952 -1.959478 29,025 146 505 -3264
2019-12-02 11:38:39 GMT 55.106873 -1.966068 29,200 147 504 -3648
2019-12-02 11:38:36 GMT 55.106873 -1.966068 29,325 147 504 -3776
2019-12-02 11:38:33 GMT 55.112274 -1.972046 29,625 147 502 -3904
2019-12-02 11:38:29 GMT 55.120697 -1.981255 29,600 148 500 -4160
2019-12-02 11:38:26 GMT 55.128616 -1.989818 29,725 148 499 -4160
2019-12-02 11:38:23 GMT 55.138611 -2.000677 30,200 148 496 -4480
2019-12-02 11:38:20 GMT 55.138611 -2.000677 30,300 148 494 -4608
2019-12-02 11:38:16 GMT 55.146515 -2.009206 30,450 148 492 -4352
2019-12-02 11:38:13 GMT 55.152206 -2.015409 30,750 148 490 -2688
2019-12-02 11:38:10 GMT 55.157135 -2.020757 31,125 148 490 -2112
2019-12-02 11:38:07 GMT 55.162903 -2.026978 31,075 148 490 -2496
2019-12-02 11:38:04 GMT 55.169037 -2.033682 31,325 148 498 -960
2019-12-02 11:38:01 GMT 55.174782 -2.039961 31,350 148 493 -1088
2019-12-02 11:37:58 GMT 55.181351 -2.047092 31,350 148 493 -1088
2019-12-02 11:37:54 GMT 55.188812 -2.055170 31,425 148 498 -960
2019-12-02 11:37:51 GMT 55.194195 -2.061019 31,475 148 499 -896
2019-12-02 11:37:48 GMT 55.199688 -2.067011 31,525 148 502 -832
2019-12-02 11:37:44 GMT 55.211418 -2.079662 31,600 148 505 -768
2019-12-02 11:37:41 GMT 55.213989 -2.082394 31,600 148 507 -768
2019-12-02 11:37:38 GMT 55.218658 -2.087483 31,825 148 510 -1152
2019-12-02 11:37:34 GMT 55.227631 -2.097177 31,725 148 510 -1152
2019-12-02 11:37:31 GMT 55.232346 -2.102266 31,725 148 510 -1152
2019-12-02 11:37:28 GMT 55.239578 -2.110021 31,950 149 513 0
2019-12-02 11:37:24 GMT 55.254181 -2.125612 32,000 148 512 -64
2019-12-02 11:37:18 GMT 55.260635 -2.132479 31,975 149 513 0
2019-12-02 11:37:15 GMT 55.267136 -2.139264 32,000 149 512 128
2019-12-02 11:37:12 GMT 55.278397 -2.151139 32,000 146 511 192
2019-12-02 11:37:09 GMT 55.278397 -2.151139 32,025 149 512 128
2019-12-02 11:37:06 GMT 55.283623 -2.156566 32,025 149 512 0
2019-12-02 11:37:02 GMT 55.291862 -2.165056 32,000 149 512 128
2019-12-02 11:36:59 GMT 55.299263 -2.172796 32,000 148 512 192
2019-12-02 11:36:56 GMT 55.304058 -2.177873 32,000 147 512 192
2019-12-02 11:36:52 GMT 55.314377 -2.189753 32,000 146 511 192
2019-12-02 11:36:49 GMT 55.323898 -2.202032 31,175 105 480 1728
2019-12-02 11:36:46 GMT 55.323898 -2.202032 31,975 140 508 256
2019-12-02 11:36:42 GMT 55.331955 -2.213907 31,975 139 509 256
2019-12-02 11:36:39 GMT 55.337811 -2.223317 31,925 134 505 512
2019-12-02 11:36:36 GMT 55.342941 -2.232406 31,925 133 505 576
2019-12-02 11:36:33 GMT 55.346188 -2.238298 31,900 131 504 832
2019-12-02 11:36:30 GMT 55.350128 -2.246058 31,850 128 501 1280
2019-12-02 11:36:27 GMT 55.354294 -2.254782 31,825 127 500 1408
2019-12-02 11:36:24 GMT 55.359734 -2.266929 31,700 123 496 1664
2019-12-02 11:36:21 GMT 55.363220 -2.275462 31,700 123 496 1664
2019-12-02 11:36:18 GMT 55.368347 -2.289034 31,550 121 494 1792
2019-12-02 11:36:12 GMT 55.374680 -2.308044 31,050 111 486 1984
2019-12-02 11:36:09 GMT 55.377365 -2.317146 31,250 114 489 1984
2019-12-02 11:36:06 GMT 55.380524 -2.328536 31,100 112 486 1984
2019-12-02 11:36:03 GMT 55.383244 -2.339422 31,075 111 485 1920
2019-12-02 11:36:00 GMT 55.385742 -2.350347 31,000 110 485 1920
2019-12-02 11:35:57 GMT 55.388535 -2.364322 30,900 107 482 1856
2019-12-02 11:35:51 GMT 55.391903 -2.383700 30,725 106 480 1728
2019-12-02 11:35:48 GMT 55.394302 -2.398574 30,675 105 480 1792
2019-12-02 11:35:45 GMT 55.395676 -2.406814 30,575 105 480 1728
2019-12-02 11:35:42 GMT 55.398327 -2.423401 30,425 105 480 1792
2019-12-02 11:35:39 GMT 55.399117 -2.428395 30,325 105 480 1728
2019-12-02 11:35:36 GMT 55.401585 -2.443709 30,250 105 480 1728
2019-12-02 11:35:33 GMT 55.402863 -2.451648 29,225 105 480 1728
2019-12-02 11:35:30 GMT 55.404510 -2.461988 30,100 105 480 1664
2019-12-02 11:35:26 GMT 55.408150 -2.484991 29,950 105 480 1472
2019-12-02 11:35:21 GMT 55.411926 -2.509245 29,825 105 479 1344
2019-12-02 11:35:18 GMT 55.411926 -2.509245 29,775 105 478 1344
2019-12-02 11:35:15 GMT 55.413300 -2.518131 29,425 104 470 1408
2019-12-02 11:35:11 GMT 55.415550 -2.532515 29,600 105 477 1408
2019-12-02 11:35:08 GMT 55.417645 -2.545915 29,550 105 477 1408
2019-12-02 11:35:05 GMT 55.419273 -2.556402 29,425 104 470 1408
2019-12-02 11:35:02 GMT 55.421356 -2.569993 29,400 105 476 1408
2019-12-02 11:34:59 GMT 55.422821 -2.579444 29,275 105 476 1472
2019-12-02 11:34:56 GMT 55.425751 -2.598509 28,850 104 469 1408
2019-12-02 11:34:50 GMT 55.427700 -2.611250 29,125 105 474 1408
2019-12-02 11:34:47 GMT 55.429413 -2.622259 29,000 105 474 1408
2019-12-02 11:34:44 GMT 55.431793 -2.637930 28,975 104 473 1472
2019-12-02 11:34:40 GMT 55.433762 -2.650775 28,850 104 473 1472
2019-12-02 11:34:37 GMT 55.435318 -2.661196 28,800 104 472 1536
2019-12-02 11:34:30 GMT 55.439163 -2.686319 28,650 104 471 1472
2019-12-02 11:34:27 GMT 55.440445 -2.695043 28,475 104 470 1408
2019-12-02 11:34:24 GMT 55.442131 -2.706132 27,525 104 469 1344
2019-12-02 11:34:20 GMT 55.444832 -2.724094 28,425 104 469 1344
2019-12-02 11:34:17 GMT 55.446415 -2.734394 28,300 104 467 1344
2019-12-02 11:34:14 GMT 55.448044 -2.745334 28,275 104 467 1344
2019-12-02 11:34:11 GMT 55.449718 -2.756281 28,175 104 466 1600
2019-12-02 11:34:08 GMT 55.451843 -2.770386 28,075 104 466 1728
2019-12-02 11:34:05 GMT 55.452621 -2.775796 28,025 104 465 1792
2019-12-02 11:34:02 GMT 55.454865 -2.790694 27,675 104 459 1792
2019-12-02 11:33:59 GMT 55.456375 -2.800765 27,925 104 465 1728
2019-12-02 11:33:56 GMT 55.458435 -2.814581 27,800 104 465 1600
2019-12-02 11:33:53 GMT 55.459541 -2.821856 27,700 104 465 1536
2019-12-02 11:33:50 GMT 55.461136 -2.832808 27,650 104 463 1472
2019-12-02 11:33:47 GMT 55.464386 -2.854531 27,425 104 460 1600
2019-12-02 11:33:44 GMT 55.467087 -2.872842 27,275 104 459 1792
2019-12-02 11:33:40 GMT 55.467087 -2.872842 27,425 104 462 1472
2019-12-02 11:33:37 GMT 55.468620 -2.883139 27,300 104 459 1728
2019-12-02 11:33:34 GMT 55.469646 -2.890091 27,150 104 459 1728
2019-12-02 11:33:31 GMT 55.472763 -2.911044 27,125 104 459 1792
2019-12-02 11:33:28 GMT 55.472763 -2.911044 26,800 104 459 1792
2019-12-02 11:33:25 GMT 55.474579 -2.923307 26,875 104 458 1856
2019-12-02 11:33:22 GMT 55.476070 -2.933264 26,775 104 457 1344
2019-12-02 11:33:19 GMT 55.477890 -2.945668 26,825 104 459 1856
2019-12-02 11:33:16 GMT 55.479607 -2.957125 26,650 104 459 1728
2019-12-02 11:33:09 GMT 55.483292 -2.981706 26,525 104 458 1536
2019-12-02 11:33:06 GMT 55.485260 -2.994856 26,425 104 453 1600
2019-12-02 11:33:03 GMT 55.486359 -3.002430 26,400 104 456 1280
2019-12-02 11:32:59 GMT 55.488777 -3.018494 26,275 104 452 1792
2019-12-02 11:32:56 GMT 55.490501 -3.029909 26,225 104 453 1536
2019-12-02 11:32:53 GMT 55.491852 -3.039051 26,125 104 452 1728
2019-12-02 11:32:49 GMT 55.494083 -3.054285 25,975 104 452 1728
2019-12-02 11:32:45 GMT 55.496384 -3.069930 25,925 104 452 1600
2019-12-02 11:32:42 GMT 55.497116 -3.074757 25,725 103 449 1408
2019-12-02 11:32:38 GMT 55.499588 -3.092152 25,400 103 443 1344
2019-12-02 11:32:35 GMT 55.501328 -3.104387 25,475 103 447 1280
2019-12-02 11:32:32 GMT 55.502697 -3.114109 25,325 103 446 1280
2019-12-02 11:32:28 GMT 55.504715 -3.128523 25,500 103 446 1280
2019-12-02 11:32:25 GMT 55.506142 -3.139000 25,400 103 444 1344
2019-12-02 11:32:22 GMT 55.507507 -3.148748 25,325 103 439 1408
2019-12-02 11:32:18 GMT 55.509567 -3.163730 25,275 103 443 1344
2019-12-02 11:32:15 GMT 55.510712 -3.171969 25,175 103 441 1408
2019-12-02 11:32:12 GMT 55.514008 -3.195856 25,125 103 440 1408
2019-12-02 11:32:09 GMT 55.515244 -3.204595 25,025 103 438 1472
2019-12-02 11:32:03 GMT 55.516754 -3.215818 24,850 103 437 1536
2019-12-02 11:32:00 GMT 55.518200 -3.226032 24,875 103 436 1536
2019-12-02 11:31:57 GMT 55.519966 -3.238993 24,825 103 435 1536
2019-12-02 11:31:54 GMT 55.521317 -3.248863 24,425 103 432 1792
2019-12-02 11:31:51 GMT 55.522297 -3.256159 24,600 103 432 1856
2019-12-02 11:31:47 GMT 55.524078 -3.269265 24,525 103 431 1984
2019-12-02 11:31:43 GMT 55.526157 -3.284569 24,325 103 430 2304
2019-12-02 11:31:40 GMT 55.527512 -3.294650 24,250 103 430 2304
2019-12-02 11:31:36 GMT 55.528976 -3.305553 24,100 103 430 2176
2019-12-02 11:31:33 GMT 55.530582 -3.317270 23,975 103 430 2112
2019-12-02 11:31:30 GMT 55.531651 -3.325338 23,825 103 429 2048
2019-12-02 11:31:27 GMT 55.533516 -3.339071 23,475 103 428 1920
2019-12-02 11:31:23 GMT 55.535378 -3.352804 23,625 103 428 1920
2019-12-02 11:31:20 GMT 55.536446 -3.360872 23,475 103 428 2112
2019-12-02 11:31:17 GMT 55.538124 -3.373060 23,375 103 428 2112
2019-12-02 11:31:14 GMT 55.539429 -3.382502 23,250 103 428 2304
2019-12-02 11:31:11 GMT 55.540833 -3.392528 23,225 103 427 2304
2019-12-02 11:31:07 GMT 55.542755 -3.406344 23,075 103 427 2432
2019-12-02 11:31:04 GMT 55.544128 -3.416319 22,600 103 428 2304
2019-12-02 11:31:01 GMT 55.545616 -3.427134 22,825 103 428 2112
2019-12-02 11:30:58 GMT 55.546967 -3.436661 22,700 103 428 1984
2019-12-02 11:30:55 GMT 55.548340 -3.446628 22,675 103 427 1856
2019-12-02 11:30:52 GMT 55.549763 -3.456831 22,600 103 427 1792
2019-12-02 11:30:49 GMT 55.551205 -3.467560 22,425 103 424 1728
2019-12-02 11:30:46 GMT 55.552414 -3.476229 22,350 103 423 1728
2019-12-02 11:30:43 GMT 55.553787 -3.486245 22,300 103 423 1856
2019-12-02 11:30:40 GMT 55.555252 -3.496982 22,200 103 422 1984
2019-12-02 11:30:37 GMT 55.556900 -3.509050 22,025 103 421 1984
2019-12-02 11:30:34 GMT 55.558136 -3.518372 21,975 103 420 1920
2019-12-02 11:30:31 GMT 55.559006 -3.524780 21,700 103 415 1600
2019-12-02 11:30:27 GMT 55.561157 -3.541010 21,750 103 417 1600
2019-12-02 11:30:24 GMT 55.562099 -3.548155 21,675 103 416 1600
2019-12-02 11:30:21 GMT 55.564098 -3.563347 21,575 102 414 1600
2019-12-02 11:30:18 GMT 55.565357 -3.572788 21,525 102 412 1728
2019-12-02 11:30:15 GMT 55.566242 -3.579741 21,425 102 412 0
2019-12-02 11:30:12 GMT 55.567776 -3.591585 21,350 102 411 1920
2019-12-02 11:30:08 GMT 55.569313 -3.603430 21,175 102 409 1920
2019-12-02 11:30:05 GMT 55.570896 -3.615704 21,175 102 409 1920
2019-12-02 11:30:02 GMT 55.571640 -3.621540 20,950 103 406 1856
2019-12-02 11:29:59 GMT 55.574707 -3.644631 20,050 103 406 1856
2019-12-02 11:29:56 GMT 55.574707 -3.644631 20,800 103 404 1856
2019-12-02 11:29:53 GMT 55.575737 -3.652525 20,775 103 404 1856
2019-12-02 11:29:50 GMT 55.578003 -3.669517 20,575 103 402 2048
2019-12-02 11:29:47 GMT 55.578003 -3.669517 20,600 103 402 1984
2019-12-02 11:29:44 GMT 55.579460 -3.680420 20,525 103 401 2048
2019-12-02 11:29:41 GMT 55.581650 -3.696814 20,300 103 400 2176
2019-12-02 11:29:35 GMT 55.583698 -3.712263 20,125 103 398 2368
2019-12-02 11:29:32 GMT 55.584538 -3.718357 20,050 103 398 2432
2019-12-02 11:29:29 GMT 55.585934 -3.728485 19,875 104 396 2688
2019-12-02 11:29:26 GMT 55.587143 -3.737326 19,825 103 397 2624
2019-12-02 11:29:23 GMT 55.588448 -3.746595 19,750 103 397 2752
2019-12-02 11:29:20 GMT 55.589584 -3.754661 19,625 104 398 2816
2019-12-02 11:29:16 GMT 55.591873 -3.770807 19,325 104 398 2624
2019-12-02 11:29:13 GMT 55.593426 -3.781443 19,200 104 398 2624
2019-12-02 11:29:10 GMT 55.594116 -3.786288 19,150 104 397 2496
2019-12-02 11:29:06 GMT 55.596127 -3.800325 18,875 104 397 2560
2019-12-02 11:29:03 GMT 55.597504 -3.809593 18,825 104 397 2560
2019-12-02 11:29:00 GMT 55.598648 -3.817666 18,725 104 396 2624
2019-12-02 11:28:56 GMT 55.600315 -3.829079 18,550 104 396 2688
2019-12-02 11:28:53 GMT 55.602081 -3.841053 18,375 104 396 2560
2019-12-02 11:28:50 GMT 55.603481 -3.850451 18,175 104 395 2624
2019-12-02 11:28:47 GMT 55.604927 -3.860493 18,125 104 395 2624
2019-12-02 11:28:44 GMT 55.606369 -3.870449 18,050 104 395 2688
2019-12-02 11:28:41 GMT 55.607529 -3.878507 17,950 104 395 2816
2019-12-02 11:28:38 GMT 55.609070 -3.889074 17,625 104 395 2880
2019-12-02 11:28:35 GMT 55.610325 -3.897829 17,525 104 395 2816
2019-12-02 11:28:32 GMT 55.611832 -3.908469 17,375 103 395 2752
2019-12-02 11:28:29 GMT 55.613304 -3.919115 17,250 103 395 2688
2019-12-02 11:28:26 GMT 55.614166 -3.925115 17,225 103 395 2752
2019-12-02 11:28:23 GMT 55.615261 -3.933105 17,100 103 395 2688
2019-12-02 11:28:20 GMT 55.618790 -3.959822 16,775 102 392 2112
2019-12-02 11:28:15 GMT 55.618790 -3.959822 16,725 102 391 2112
2019-12-02 11:28:11 GMT 55.620438 -3.972473 16,475 102 388 2240
2019-12-02 11:28:07 GMT 55.622040 -3.985041 16,425 102 388 2304
2019-12-02 11:28:04 GMT 55.622894 -3.991642 16,350 102 388 2240
2019-12-02 11:28:01 GMT 55.624603 -4.004850 16,175 102 386 2304
2019-12-02 11:27:57 GMT 55.626205 -4.017251 16,025 102 384 2368
2019-12-02 11:27:54 GMT 55.627167 -4.024492 15,950 102 384 2432
2019-12-02 11:27:51 GMT 55.628220 -4.032898 15,800 102 382 2432
2019-12-02 11:27:48 GMT 55.630005 -4.046548 15,650 102 381 2304
2019-12-02 11:27:44 GMT 55.631134 -4.055672 15,500 103 380 2368
2019-12-02 11:27:41 GMT 55.632626 -4.067001 15,450 103 380 2432
2019-12-02 11:27:38 GMT 55.633694 -4.074984 15,275 103 378 2304
2019-12-02 11:27:34 GMT 55.635086 -4.085166 15,150 103 376 1920
2019-12-02 11:27:31 GMT 55.636414 -4.094738 14,975 106 373 2176
2019-12-02 11:27:28 GMT 55.637421 -4.101729 15,000 105 373 2176
2019-12-02 11:27:24 GMT 55.639515 -4.114981 14,825 106 373 2112
2019-12-02 11:27:20 GMT 55.641449 -4.126115 14,700 107 371 2112
2019-12-02 11:27:15 GMT 55.643845 -4.139614 14,525 107 368 2432
2019-12-02 11:27:12 GMT 55.646805 -4.156161 14,300 107 366 2560
2019-12-02 11:27:04 GMT 55.651852 -4.184074 13,925 107 364 3008
2019-12-02 11:27:00 GMT 55.651852 -4.184074 13,925 107 364 3008
2019-12-02 11:26:56 GMT 55.653854 -4.194946 13,675 107 363 3456
2019-12-02 11:26:53 GMT 55.655666 -4.205017 13,400 108 364 3776
2019-12-02 11:26:50 GMT 55.657150 -4.213090 13,250 108 364 3776
2019-12-02 11:26:46 GMT 55.660694 -4.231796 13,000 109 367 3392
2019-12-02 11:26:43 GMT 55.662598 -4.241388 12,750 109 367 3392
2019-12-02 11:26:40 GMT 55.662598 -4.241388 12,650 110 368 3392
2019-12-02 11:26:33 GMT 55.666443 -4.259449 12,325 111 368 3264
2019-12-02 11:26:29 GMT 55.668751 -4.269562 12,075 112 368 3200
2019-12-02 11:26:22 GMT 55.675034 -4.296083 11,675 112 368 3264
2019-12-02 11:26:18 GMT 55.676941 -4.304066 11,450 112 368 2880
2019-12-02 11:26:12 GMT 55.682144 -4.325950 11,200 112 366 2432
2019-12-02 11:26:09 GMT 55.682144 -4.325950 11,125 112 365 2240
2019-12-02 11:26:05 GMT 55.685440 -4.339766 10,975 112 363 1920
2019-12-02 11:26:02 GMT 55.686996 -4.346380 10,900 112 361 1728
2019-12-02 11:25:59 GMT 55.688812 -4.353933 10,800 112 357 1344
2019-12-02 11:25:54 GMT 55.691513 -4.365349 10,675 113 347 1216
2019-12-02 11:25:51 GMT 55.693909 -4.375388 10,625 112 345 1280
2019-12-02 11:25:48 GMT 55.695377 -4.381485 10,575 112 341 1344
2019-12-02 11:25:45 GMT 55.697845 -4.391868 10,500 112 337 1536
2019-12-02 11:25:41 GMT 55.700043 -4.401106 10,425 112 332 1792
2019-12-02 11:25:38 GMT 55.701416 -4.407016 10,375 112 330 2240
2019-12-02 11:25:34 GMT 55.703617 -4.416504 10,175 112 326 2880
2019-12-02 11:25:30 GMT 55.706688 -4.429636 9,850 112 323 2496
2019-12-02 11:25:27 GMT 55.709389 -4.441051 9,725 113 320 2240
2019-12-02 11:25:21 GMT 55.711529 -4.449806 9,500 114 318 2240
2019-12-02 11:25:18 GMT 55.713089 -4.455955 9,500 114 317 2240
2019-12-02 11:25:15 GMT 55.715332 -4.464444 9,350 115 313 2432
2019-12-02 11:25:11 GMT 55.717804 -4.473849 9,175 114 310 2688
2019-12-02 11:25:08 GMT 55.719910 -4.482079 9,075 114 308 2752
2019-12-02 11:25:02 GMT 55.722748 -4.492992 8,625 114 304 2880
2019-12-02 11:24:59 GMT 55.724854 -4.501232 8,575 114 303 3072
2019-12-02 11:24:55 GMT 55.727360 -4.510832 8,425 115 301 3136
2019-12-02 11:24:51 GMT 55.729431 -4.518460 8,175 115 300 2816
2019-12-02 11:24:48 GMT 55.731354 -4.525618 8,100 116 300 2624
2019-12-02 11:24:43 GMT 55.734512 -4.536771 7,950 117 298 2304
2019-12-02 11:24:40 GMT 55.736069 -4.541765 7,775 120 294 1792
2019-12-02 11:24:37 GMT 55.737991 -4.547591 7,700 123 292 1664
2019-12-02 11:24:34 GMT 55.740532 -4.554262 7,600 127 290 1536
2019-12-02 11:24:31 GMT 55.743233 -4.560184 7,450 135 285 1664
2019-12-02 11:24:27 GMT 55.746632 -4.566193 7,425 145 278 2368
2019-12-02 11:24:22 GMT 55.752274 -4.574058 7,250 148 277 2368
2019-12-02 11:24:18 GMT 55.757492 -4.579468 7,050 161 267 2752
2019-12-02 11:24:14 GMT 55.761387 -4.582500 6,900 160 268 2688
2019-12-02 11:24:10 GMT 55.765160 -4.584732 6,750 165 264 2816
2019-12-02 11:24:07 GMT 55.769489 -4.586620 6,575 178 253 2624
2019-12-02 11:24:03 GMT 55.774017 -4.587458 6,425 178 253 2624
2019-12-02 11:23:57 GMT 55.781342 -4.586626 6,150 193 240 2496
2019-12-02 11:23:53 GMT 55.785187 -4.584878 5,975 199 234 2432
2019-12-02 11:23:50 GMT 55.791595 -4.579717 5,675 215 221 3200
2019-12-02 11:23:47 GMT 55.791595 -4.579717 5,675 215 221 3200
2019-12-02 11:23:44 GMT 55.794113 -4.576804 5,525 218 218 3456
2019-12-02 11:23:40 GMT 55.796631 -4.573142 5,425 221 217 3520
2019-12-02 11:23:36 GMT 55.799652 -4.568338 5,075 223 215 3392
2019-12-02 11:23:33 GMT 55.801655 -4.564991 4,925 223 215 3200
2019-12-02 11:23:30 GMT 55.804310 -4.560614 4,800 224 215 3072
2019-12-02 11:23:26 GMT 55.806915 -4.556322 4,550 224 212 3264
2019-12-02 11:23:22 GMT 55.810547 -4.550171 4,250 224 210 3584
2019-12-02 11:23:18 GMT 55.812828 -4.546366 4,100 224 210 3520
2019-12-02 11:23:15 GMT 55.814922 -4.542761 3,875 225 210 3520
2019-12-02 11:23:11 GMT 55.817459 -4.538436 3,575 225 209 3520
2019-12-02 11:23:08 GMT 55.819931 -4.534024 3,425 226 208 3520
2019-12-02 11:23:04 GMT 55.823116 -4.528341 3,150 226 207 3456
2019-12-02 11:22:59 GMT 55.825699 -4.523704 2,750 227 204 2944
2019-12-02 11:22:54 GMT 55.830231 -4.515214 2,425 228 201 2688
2019-12-02 11:22:48 GMT 55.832706 -4.510489 2,375 228 199 2496
2019-12-02 11:22:43 GMT 55.835815 -4.504228 2,175 229 193 2112
2019-12-02 11:22:39 GMT 55.838058 -4.499650 2,025 230 188 1984
2019-12-02 11:22:33 GMT 55.841366 -4.492722 1,850 230 181 1664
2019-12-02 11:22:30 GMT 55.843231 -4.488831 1,700 230 175 1536
2019-12-02 11:22:26 GMT 55.845703 -4.483670 1,625 230 171 1600
2019-12-02 11:22:22 GMT 55.847229 -4.480534 1,475 229 165 1728
2019-12-02 11:22:18 GMT 55.849045 -4.476843 1,425 229 160 1856
2019-12-02 11:22:10 GMT 55.852955 -4.468946 1,175 229 155 1920
2019-12-02 11:22:07 GMT 55.854446 -4.465942 1,075 228 151 1984
2019-12-02 11:22:00 GMT 55.857742 -4.459617 900 227 148 2496
2019-12-02 11:21:52 GMT 55.861588 -4.452542 375 226 148 3072
2019-12-02 11:21:42 GMT 55.866440 -4.443720 -125 227 152 2624
2019-12-02 11:21:06 GMT 55.878834 -4.420395 0 227 28
2019-12-02 11:21:02 GMT 55.879120 -4.419851 0 227 8
2019-12-02 11:20:52 GMT 55.879166 -4.419744 0 227 0
2019-12-02 11:20:29 GMT 55.879059 -4.418778 0 320 11
2019-12-02 11:20:21 GMT 55.878799 -4.418522 0 348 9
2019-12-02 11:20:05 GMT 55.878433 -4.418457 0 5 2
2019-12-02 11:19:55 GMT 55.878422 -4.418457 0 5 0
2019-12-02 11:19:40 GMT 55.878433 -4.418457 0 5 0
2019-12-02 11:19:21 GMT 55.878433 -4.418460 0 5 0

Making use of Plane Finder data

You are free to use the raw flight data, aircraft information and images provided in this report for your own purposes provided the data is correctly attributed to Plane Finder. We ask that you please credit Plane Finder and link to planefinder.net in close proximity to the content.

Optionally one of the following logos (no smaller then 150x24px) can be used and must link to planefinder.net

Embedding the Plane Finder map

You are welcome to embed the Plane Finder playback map on your website to offer visitors a more interactive experience. We suggest using the following HTML code:

<iframe src="//planefinder.net/data/report/U26853-G-EZII-7700-squawk-2019-12-02/map" width="800" height="600" seamless="seamless"></iframe>

Where our data comes from

Plane Finder has a global network of data feeds and antenna radars that receive data broadcast directly from aircraft. The primary technologies used are ADS-B and MLAT. We also show feeds from the FAA and a FLARM glider feed.

Click here to find out more about the Plane Finder network.

How we collect our data